<?xml version="1.0" encoding="UTF-8" standalone="no" ?>
<gpx xmlns="http://www.topografix.com/GPX/1/1" xmlns:xsi="http://www.w3.org/2001/XMLSchema-instance" xsi:schemaLocation="http://www.topografix.com/GPX/1/1 http://www.topografix.com/GPX/1/1/gpx.xsd" version="1.1" creator="VisuGPX - https://www.visugpx.com">
  <metadata>
    <name>SC0606G2_50kmau</name>
  </metadata>
  <trk>
    <name><![CDATA[saint aubert maulde 50]]></name>
    <trkseg>
      <trkpt lat="50.50334" lon="3.46406">
        <ele>20.752107</ele>
        <time>2021-06-03T15:19:40.672Z</time>
      </trkpt>
      <trkpt lat="50.50337" lon="3.46412">
        <ele>20.752107</ele>
        <time>2021-06-03T15:19:45.970Z</time>
      </trkpt>
      <trkpt lat="50.50356" lon="3.46426">
        <ele>20.752107</ele>
        <time>2021-06-03T15:20:09.307Z</time>
      </trkpt>
      <trkpt lat="50.50362" lon="3.46434">
        <ele>20.752107</ele>
        <time>2021-06-03T15:20:18.078Z</time>
      </trkpt>
      <trkpt lat="50.50361" lon="3.46454">
        <ele>20.752107</ele>
        <time>2021-06-03T15:20:32.307Z</time>
      </trkpt>
      <trkpt lat="50.5034" lon="3.46438">
        <ele>20.752107</ele>
        <time>2021-06-03T15:20:35.996Z</time>
      </trkpt>
      <trkpt lat="50.5034" lon="3.46438">
        <ele>20.752107</ele>
        <time>2021-06-03T15:20:36.000Z</time>
      </trkpt>
      <trkpt lat="50.50316" lon="3.46422">
        <ele>20.747518</ele>
        <time>2021-06-03T15:20:40.165Z</time>
      </trkpt>
      <trkpt lat="50.50313" lon="3.46411">
        <ele>20.741433</ele>
        <time>2021-06-03T15:20:41.309Z</time>
      </trkpt>
      <trkpt lat="50.50317" lon="3.46374">
        <ele>20.723075</ele>
        <time>2021-06-03T15:20:44.952Z</time>
      </trkpt>
      <trkpt lat="50.50325" lon="3.46304">
        <ele>20.68775</ele>
        <time>2021-06-03T15:20:51.627Z</time>
      </trkpt>
      <trkpt lat="50.50335" lon="3.46236">
        <ele>20.652866</ele>
        <time>2021-06-03T15:20:58.024Z</time>
      </trkpt>
      <trkpt lat="50.50345" lon="3.46155">
        <ele>20.612032</ele>
        <time>2021-06-03T15:21:05.401Z</time>
      </trkpt>
      <trkpt lat="50.50361" lon="3.46074">
        <ele>20.377632</ele>
        <time>2021-06-03T15:21:12.673Z</time>
      </trkpt>
      <trkpt lat="50.5041" lon="3.45851">
        <ele>19.71691</ele>
        <time>2021-06-03T15:21:32.722Z</time>
      </trkpt>
      <trkpt lat="50.50424" lon="3.45772">
        <ele>19.488249</ele>
        <time>2021-06-03T15:21:39.781Z</time>
      </trkpt>
      <trkpt lat="50.50433" lon="3.4572">
        <ele>19.336776</ele>
        <time>2021-06-03T15:21:44.474Z</time>
      </trkpt>
      <trkpt lat="50.50436" lon="3.45642">
        <ele>19.120093</ele>
        <time>2021-06-03T15:21:51.190Z</time>
      </trkpt>
      <trkpt lat="50.50437" lon="3.45631">
        <ele>19.089283</ele>
        <time>2021-06-03T15:21:52.004Z</time>
      </trkpt>
      <trkpt lat="50.5044" lon="3.45588">
        <ele>18.904487</ele>
        <time>2021-06-03T15:21:56.112Z</time>
      </trkpt>
      <trkpt lat="50.50441" lon="3.45573">
        <ele>18.819315</ele>
        <time>2021-06-03T15:21:57.265Z</time>
      </trkpt>
      <trkpt lat="50.50441" lon="3.45568">
        <ele>18.790859</ele>
        <time>2021-06-03T15:21:57.708Z</time>
      </trkpt>
      <trkpt lat="50.50443" lon="3.45552">
        <ele>18.700336</ele>
        <time>2021-06-03T15:21:59.063Z</time>
      </trkpt>
      <trkpt lat="50.50448" lon="3.45508">
        <ele>18.456245</ele>
        <time>2021-06-03T15:22:02.490Z</time>
      </trkpt>
      <trkpt lat="50.50447" lon="3.4549">
        <ele>18.35343</ele>
        <time>2021-06-03T15:22:03.925Z</time>
      </trkpt>
      <trkpt lat="50.50444" lon="3.45482">
        <ele>18.300954</ele>
        <time>2021-06-03T15:22:04.733Z</time>
      </trkpt>
      <trkpt lat="50.50448" lon="3.4547">
        <ele>18.226074</ele>
        <time>2021-06-03T15:22:05.715Z</time>
      </trkpt>
      <trkpt lat="50.50458" lon="3.45443">
        <ele>18.051514</ele>
        <time>2021-06-03T15:22:08.166Z</time>
      </trkpt>
      <trkpt lat="50.50468" lon="3.45372">
        <ele>17.648785</ele>
        <time>2021-06-03T15:22:13.853Z</time>
      </trkpt>
      <trkpt lat="50.50471" lon="3.45343">
        <ele>17.485099</ele>
        <time>2021-06-03T15:22:16.218Z</time>
      </trkpt>
      <trkpt lat="50.50473" lon="3.45332">
        <ele>17.43179</ele>
        <time>2021-06-03T15:22:17.021Z</time>
      </trkpt>
      <trkpt lat="50.50477" lon="3.45312">
        <ele>17.329944</ele>
        <time>2021-06-03T15:22:18.782Z</time>
      </trkpt>
      <trkpt lat="50.50513" lon="3.45201">
        <ele>16.74366</ele>
        <time>2021-06-03T15:22:28.700Z</time>
      </trkpt>
      <trkpt lat="50.50531" lon="3.45152">
        <ele>16.476758</ele>
        <time>2021-06-03T15:22:33.268Z</time>
      </trkpt>
      <trkpt lat="50.50539" lon="3.45133">
        <ele>16.367637</ele>
        <time>2021-06-03T15:22:35.079Z</time>
      </trkpt>
      <trkpt lat="50.50551" lon="3.45111">
        <ele>16.233051</ele>
        <time>2021-06-03T15:22:37.517Z</time>
      </trkpt>
      <trkpt lat="50.50599" lon="3.45026">
        <ele>16.013171</ele>
        <time>2021-06-03T15:22:47.490Z</time>
      </trkpt>
      <trkpt lat="50.50652" lon="3.44916">
        <ele>15.837083</ele>
        <time>2021-06-03T15:23:00.315Z</time>
      </trkpt>
      <trkpt lat="50.50661" lon="3.44894">
        <ele>15.80419</ele>
        <time>2021-06-03T15:23:02.579Z</time>
      </trkpt>
      <trkpt lat="50.50673" lon="3.44871">
        <ele>15.768921</ele>
        <time>2021-06-03T15:23:05.475Z</time>
      </trkpt>
      <trkpt lat="50.50707" lon="3.44823">
        <ele>15.7334</ele>
        <time>2021-06-03T15:23:11.944Z</time>
      </trkpt>
      <trkpt lat="50.51095" lon="3.44486">
        <ele>15.493951</ele>
        <time>2021-06-03T15:24:16.388Z</time>
      </trkpt>
      <trkpt lat="50.51116" lon="3.44468">
        <ele>15.494888</ele>
        <time>2021-06-03T15:24:20.201Z</time>
      </trkpt>
      <trkpt lat="50.51187" lon="3.44406">
        <ele>15.693823</ele>
        <time>2021-06-03T15:24:32.838Z</time>
      </trkpt>
      <trkpt lat="50.5119" lon="3.44403">
        <ele>15.709057</ele>
        <time>2021-06-03T15:24:33.631Z</time>
      </trkpt>
      <trkpt lat="50.51322" lon="3.4435">
        <ele>16.169753</ele>
        <time>2021-06-03T15:24:56.026Z</time>
      </trkpt>
      <trkpt lat="50.5134" lon="3.44349">
        <ele>16.21873</ele>
        <time>2021-06-03T15:24:59.222Z</time>
      </trkpt>
      <trkpt lat="50.51346" lon="3.4435">
        <ele>16.23377</ele>
        <time>2021-06-03T15:25:00.168Z</time>
      </trkpt>
      <trkpt lat="50.5139" lon="3.44363">
        <ele>16.351468</ele>
        <time>2021-06-03T15:25:07.455Z</time>
      </trkpt>
      <trkpt lat="50.51573" lon="3.44428">
        <ele>16.450822</ele>
        <time>2021-06-03T15:25:36.302Z</time>
      </trkpt>
      <trkpt lat="50.51599" lon="3.44445">
        <ele>16.405893</ele>
        <time>2021-06-03T15:25:40.085Z</time>
      </trkpt>
      <trkpt lat="50.51714" lon="3.44519">
        <ele>16.070825</ele>
        <time>2021-06-03T15:25:56.560Z</time>
      </trkpt>
      <trkpt lat="50.51727" lon="3.44527">
        <ele>16.021582</ele>
        <time>2021-06-03T15:25:58.301Z</time>
      </trkpt>
      <trkpt lat="50.51818" lon="3.44585">
        <ele>15.663047</ele>
        <time>2021-06-03T15:26:11.722Z</time>
      </trkpt>
      <trkpt lat="50.51845" lon="3.44602">
        <ele>15.730965</ele>
        <time>2021-06-03T15:26:16.045Z</time>
      </trkpt>
      <trkpt lat="50.5192" lon="3.44671">
        <ele>15.972891</ele>
        <time>2021-06-03T15:26:29.825Z</time>
      </trkpt>
      <trkpt lat="50.51925" lon="3.44675">
        <ele>15.989011</ele>
        <time>2021-06-03T15:26:30.837Z</time>
      </trkpt>
      <trkpt lat="50.51933" lon="3.44684">
        <ele>16.017421</ele>
        <time>2021-06-03T15:26:32.831Z</time>
      </trkpt>
      <trkpt lat="50.51953" lon="3.44702">
        <ele>16.080045</ele>
        <time>2021-06-03T15:26:36.376Z</time>
      </trkpt>
      <trkpt lat="50.51991" lon="3.44724">
        <ele>16.202914</ele>
        <time>2021-06-03T15:26:43.318Z</time>
      </trkpt>
      <trkpt lat="50.52029" lon="3.44725">
        <ele>16.334865</ele>
        <time>2021-06-03T15:26:49.737Z</time>
      </trkpt>
      <trkpt lat="50.52034" lon="3.44722">
        <ele>16.351911</ele>
        <time>2021-06-03T15:26:50.780Z</time>
      </trkpt>
      <trkpt lat="50.52072" lon="3.44707">
        <ele>16.487302</ele>
        <time>2021-06-03T15:26:57.384Z</time>
      </trkpt>
      <trkpt lat="50.52089" lon="3.44693">
        <ele>16.555406</ele>
        <time>2021-06-03T15:27:00.433Z</time>
      </trkpt>
      <trkpt lat="50.52092" lon="3.44691">
        <ele>16.564616</ele>
        <time>2021-06-03T15:27:00.852Z</time>
      </trkpt>
      <trkpt lat="50.52105" lon="3.44679">
        <ele>16.616705</ele>
        <time>2021-06-03T15:27:03.328Z</time>
      </trkpt>
      <trkpt lat="50.52116" lon="3.44669">
        <ele>16.662644</ele>
        <time>2021-06-03T15:27:05.359Z</time>
      </trkpt>
      <trkpt lat="50.52143" lon="3.44666">
        <ele>16.754555</ele>
        <time>2021-06-03T15:27:09.532Z</time>
      </trkpt>
      <trkpt lat="50.52154" lon="3.44675">
        <ele>16.775877</ele>
        <time>2021-06-03T15:27:11.396Z</time>
      </trkpt>
      <trkpt lat="50.52189" lon="3.44712">
        <ele>16.744803</ele>
        <time>2021-06-03T15:27:17.568Z</time>
      </trkpt>
      <trkpt lat="50.52222" lon="3.44745">
        <ele>16.715351</ele>
        <time>2021-06-03T15:27:23.154Z</time>
      </trkpt>
      <trkpt lat="50.52251" lon="3.448">
        <ele>16.681414</ele>
        <time>2021-06-03T15:27:29.666Z</time>
      </trkpt>
      <trkpt lat="50.52281" lon="3.44844">
        <ele>16.650563</ele>
        <time>2021-06-03T15:27:35.574Z</time>
      </trkpt>
      <trkpt lat="50.52311" lon="3.44887">
        <ele>16.671733</ele>
        <time>2021-06-03T15:27:41.415Z</time>
      </trkpt>
      <trkpt lat="50.52348" lon="3.44962">
        <ele>16.717807</ele>
        <time>2021-06-03T15:27:50.470Z</time>
      </trkpt>
      <trkpt lat="50.52354" lon="3.44967">
        <ele>16.723393</ele>
        <time>2021-06-03T15:27:51.552Z</time>
      </trkpt>
      <trkpt lat="50.52364" lon="3.44971">
        <ele>16.731126</ele>
        <time>2021-06-03T15:27:53.123Z</time>
      </trkpt>
      <trkpt lat="50.52397" lon="3.4497">
        <ele>16.756489</ele>
        <time>2021-06-03T15:27:58.363Z</time>
      </trkpt>
      <trkpt lat="50.52465" lon="3.44966">
        <ele>16.834975</ele>
        <time>2021-06-03T15:28:08.975Z</time>
      </trkpt>
      <trkpt lat="50.52496" lon="3.44968">
        <ele>16.884591</ele>
        <time>2021-06-03T15:28:13.884Z</time>
      </trkpt>
      <trkpt lat="50.52556" lon="3.44992">
        <ele>16.981894</ele>
        <time>2021-06-03T15:28:23.483Z</time>
      </trkpt>
      <trkpt lat="50.52569" lon="3.45007">
        <ele>17.008221</ele>
        <time>2021-06-03T15:28:25.875Z</time>
      </trkpt>
      <trkpt lat="50.52594" lon="3.45088">
        <ele>17.138912</ele>
        <time>2021-06-03T15:28:34.574Z</time>
      </trkpt>
      <trkpt lat="50.52608" lon="3.45115">
        <ele>17.219795</ele>
        <time>2021-06-03T15:28:37.807Z</time>
      </trkpt>
      <trkpt lat="50.52695" lon="3.45217">
        <ele>17.623687</ele>
        <time>2021-06-03T15:28:55.317Z</time>
      </trkpt>
      <trkpt lat="50.52698" lon="3.45225">
        <ele>17.647498</ele>
        <time>2021-06-03T15:28:56.485Z</time>
      </trkpt>
      <trkpt lat="50.52707" lon="3.45261">
        <ele>17.738254</ele>
        <time>2021-06-03T15:29:00.739Z</time>
      </trkpt>
      <trkpt lat="50.52719" lon="3.45338">
        <ele>18.175386</ele>
        <time>2021-06-03T15:29:09.923Z</time>
      </trkpt>
      <trkpt lat="50.52726" lon="3.45386">
        <ele>18.449199</ele>
        <time>2021-06-03T15:29:15.772Z</time>
      </trkpt>
      <trkpt lat="50.52741" lon="3.45438">
        <ele>18.766392</ele>
        <time>2021-06-03T15:29:22.692Z</time>
      </trkpt>
      <trkpt lat="50.52758" lon="3.45546">
        <ele>19.368684</ele>
        <time>2021-06-03T15:29:35.872Z</time>
      </trkpt>
      <trkpt lat="50.52769" lon="3.45601">
        <ele>19.630287</ele>
        <time>2021-06-03T15:29:42.400Z</time>
      </trkpt>
      <trkpt lat="50.52802" lon="3.4571">
        <ele>20.183166</ele>
        <time>2021-06-03T15:29:55.946Z</time>
      </trkpt>
      <trkpt lat="50.52899" lon="3.46191">
        <ele>22.707421</ele>
        <time>2021-06-03T15:30:52.152Z</time>
      </trkpt>
      <trkpt lat="50.52939" lon="3.46351">
        <ele>23.906038</ele>
        <time>2021-06-03T15:31:14.499Z</time>
      </trkpt>
      <trkpt lat="50.52951" lon="3.46484">
        <ele>25.071672</ele>
        <time>2021-06-03T15:31:32.136Z</time>
      </trkpt>
      <trkpt lat="50.53003" lon="3.46805">
        <ele>27.671343</ele>
        <time>2021-06-03T15:32:14.628Z</time>
      </trkpt>
      <trkpt lat="50.53008" lon="3.46817">
        <ele>27.77403</ele>
        <time>2021-06-03T15:32:16.334Z</time>
      </trkpt>
      <trkpt lat="50.53012" lon="3.46822">
        <ele>27.828408</ele>
        <time>2021-06-03T15:32:17.293Z</time>
      </trkpt>
      <trkpt lat="50.53018" lon="3.46828">
        <ele>27.917044</ele>
        <time>2021-06-03T15:32:18.779Z</time>
      </trkpt>
      <trkpt lat="50.53025" lon="3.46829">
        <ele>27.995943</ele>
        <time>2021-06-03T15:32:20.543Z</time>
      </trkpt>
      <trkpt lat="50.53175" lon="3.46773">
        <ele>28.078181</ele>
        <time>2021-06-03T15:32:45.531Z</time>
      </trkpt>
      <trkpt lat="50.53195" lon="3.46763">
        <ele>28.050031</ele>
        <time>2021-06-03T15:32:48.431Z</time>
      </trkpt>
      <trkpt lat="50.532" lon="3.46759">
        <ele>28.042658</ele>
        <time>2021-06-03T15:32:48.937Z</time>
      </trkpt>
      <trkpt lat="50.53267" lon="3.46704">
        <ele>27.182691</ele>
        <time>2021-06-03T15:32:57.428Z</time>
      </trkpt>
      <trkpt lat="50.53356" lon="3.46634">
        <ele>25.636181</ele>
        <time>2021-06-03T15:33:08.505Z</time>
      </trkpt>
      <trkpt lat="50.5341" lon="3.46593">
        <ele>25.123262</ele>
        <time>2021-06-03T15:33:15.820Z</time>
      </trkpt>
      <trkpt lat="50.53601" lon="3.4645">
        <ele>24.204814</ele>
        <time>2021-06-03T15:33:47.256Z</time>
      </trkpt>
      <trkpt lat="50.53712" lon="3.46368">
        <ele>23.249</ele>
        <time>2021-06-03T15:34:02.183Z</time>
      </trkpt>
      <trkpt lat="50.53812" lon="3.46292">
        <ele>21.622848</ele>
        <time>2021-06-03T15:34:14.705Z</time>
      </trkpt>
      <trkpt lat="50.53844" lon="3.46263">
        <ele>21.092637</ele>
        <time>2021-06-03T15:34:18.908Z</time>
      </trkpt>
      <trkpt lat="50.53856" lon="3.46244">
        <ele>20.839354</ele>
        <time>2021-06-03T15:34:20.991Z</time>
      </trkpt>
      <trkpt lat="50.53878" lon="3.46181">
        <ele>20.542396</ele>
        <time>2021-06-03T15:34:26.459Z</time>
      </trkpt>
      <trkpt lat="50.5388" lon="3.46164">
        <ele>20.484172</ele>
        <time>2021-06-03T15:34:27.798Z</time>
      </trkpt>
      <trkpt lat="50.53949" lon="3.45679">
        <ele>19.38693</ele>
        <time>2021-06-03T15:35:12.380Z</time>
      </trkpt>
      <trkpt lat="50.54021" lon="3.45177">
        <ele>18.500138</ele>
        <time>2021-06-03T15:35:57.833Z</time>
      </trkpt>
      <trkpt lat="50.5404" lon="3.45071">
        <ele>18.298968</ele>
        <time>2021-06-03T15:36:07.494Z</time>
      </trkpt>
      <trkpt lat="50.54079" lon="3.44862">
        <ele>17.885912</ele>
        <time>2021-06-03T15:36:27.141Z</time>
      </trkpt>
      <trkpt lat="50.54083" lon="3.44841">
        <ele>17.799762</ele>
        <time>2021-06-03T15:36:28.976Z</time>
      </trkpt>
      <trkpt lat="50.54084" lon="3.44834">
        <ele>17.770184</ele>
        <time>2021-06-03T15:36:29.553Z</time>
      </trkpt>
      <trkpt lat="50.54089" lon="3.44817">
        <ele>17.695528</ele>
        <time>2021-06-03T15:36:31.019Z</time>
      </trkpt>
      <trkpt lat="50.54112" lon="3.44694">
        <ele>17.194686</ele>
        <time>2021-06-03T15:36:41.108Z</time>
      </trkpt>
      <trkpt lat="50.54114" lon="3.44687">
        <ele>17.166411</ele>
        <time>2021-06-03T15:36:41.785Z</time>
      </trkpt>
      <trkpt lat="50.54118" lon="3.44689">
        <ele>17.136417</ele>
        <time>2021-06-03T15:36:42.390Z</time>
      </trkpt>
      <trkpt lat="50.54123" lon="3.44691">
        <ele>17.105725</ele>
        <time>2021-06-03T15:36:43.023Z</time>
      </trkpt>
      <trkpt lat="50.54138" lon="3.44698">
        <ele>17.011498</ele>
        <time>2021-06-03T15:36:44.934Z</time>
      </trkpt>
      <trkpt lat="50.54141" lon="3.447">
        <ele>16.99107</ele>
        <time>2021-06-03T15:36:45.365Z</time>
      </trkpt>
      <trkpt lat="50.5416" lon="3.44707">
        <ele>16.869599</ele>
        <time>2021-06-03T15:36:48.142Z</time>
      </trkpt>
      <trkpt lat="50.5417" lon="3.44711">
        <ele>16.808412</ele>
        <time>2021-06-03T15:36:49.420Z</time>
      </trkpt>
      <trkpt lat="50.54179" lon="3.44715">
        <ele>16.786722</ele>
        <time>2021-06-03T15:36:50.756Z</time>
      </trkpt>
      <trkpt lat="50.54192" lon="3.4472">
        <ele>16.795353</ele>
        <time>2021-06-03T15:36:52.845Z</time>
      </trkpt>
      <trkpt lat="50.54222" lon="3.44731">
        <ele>16.815199</ele>
        <time>2021-06-03T15:36:57.129Z</time>
      </trkpt>
      <trkpt lat="50.54249" lon="3.44741">
        <ele>16.832924</ele>
        <time>2021-06-03T15:37:00.884Z</time>
      </trkpt>
      <trkpt lat="50.54262" lon="3.44741">
        <ele>16.841274</ele>
        <time>2021-06-03T15:37:02.934Z</time>
      </trkpt>
      <trkpt lat="50.5428" lon="3.44728">
        <ele>16.854198</ele>
        <time>2021-06-03T15:37:05.607Z</time>
      </trkpt>
      <trkpt lat="50.54288" lon="3.44721">
        <ele>16.860066</ele>
        <time>2021-06-03T15:37:07.172Z</time>
      </trkpt>
      <trkpt lat="50.54333" lon="3.44658">
        <ele>16.898492</ele>
        <time>2021-06-03T15:37:17.659Z</time>
      </trkpt>
      <trkpt lat="50.54389" lon="3.44586">
        <ele>16.962286</ele>
        <time>2021-06-03T15:37:30.137Z</time>
      </trkpt>
      <trkpt lat="50.54403" lon="3.4458">
        <ele>16.974575</ele>
        <time>2021-06-03T15:37:32.435Z</time>
      </trkpt>
      <trkpt lat="50.54414" lon="3.4458">
        <ele>16.984049</ele>
        <time>2021-06-03T15:37:33.979Z</time>
      </trkpt>
      <trkpt lat="50.54423" lon="3.4458">
        <ele>16.991775</ele>
        <time>2021-06-03T15:37:35.222Z</time>
      </trkpt>
      <trkpt lat="50.54433" lon="3.44583">
        <ele>17.000631</ele>
        <time>2021-06-03T15:37:36.635Z</time>
      </trkpt>
      <trkpt lat="50.54444" lon="3.44586">
        <ele>17.011293</ele>
        <time>2021-06-03T15:37:38.370Z</time>
      </trkpt>
      <trkpt lat="50.54473" lon="3.44524">
        <ele>17.054109</ele>
        <time>2021-06-03T15:37:47.588Z</time>
      </trkpt>
      <trkpt lat="50.54483" lon="3.44498">
        <ele>16.960906</ele>
        <time>2021-06-03T15:37:51.270Z</time>
      </trkpt>
      <trkpt lat="50.54489" lon="3.44433">
        <ele>16.726462</ele>
        <time>2021-06-03T15:37:58.978Z</time>
      </trkpt>
      <trkpt lat="50.54494" lon="3.44392">
        <ele>16.577246</ele>
        <time>2021-06-03T15:38:03.705Z</time>
      </trkpt>
      <trkpt lat="50.54508" lon="3.44228">
        <ele>15.990536</ele>
        <time>2021-06-03T15:38:22.898Z</time>
      </trkpt>
      <trkpt lat="50.54518" lon="3.44112">
        <ele>15.654666</ele>
        <time>2021-06-03T15:38:37.262Z</time>
      </trkpt>
      <trkpt lat="50.54516" lon="3.44077">
        <ele>15.551933</ele>
        <time>2021-06-03T15:38:41.540Z</time>
      </trkpt>
      <trkpt lat="50.54515" lon="3.44071">
        <ele>15.533604</ele>
        <time>2021-06-03T15:38:42.370Z</time>
      </trkpt>
      <trkpt lat="50.54511" lon="3.44051">
        <ele>15.473816</ele>
        <time>2021-06-03T15:38:44.649Z</time>
      </trkpt>
      <trkpt lat="50.54501" lon="3.43991">
        <ele>15.292485</ele>
        <time>2021-06-03T15:38:51.981Z</time>
      </trkpt>
      <trkpt lat="50.54501" lon="3.43988">
        <ele>15.286109</ele>
        <time>2021-06-03T15:38:52.256Z</time>
      </trkpt>
      <trkpt lat="50.54501" lon="3.4397">
        <ele>15.234069</ele>
        <time>2021-06-03T15:38:54.427Z</time>
      </trkpt>
      <trkpt lat="50.54505" lon="3.43927">
        <ele>15.164034</ele>
        <time>2021-06-03T15:38:59.516Z</time>
      </trkpt>
      <trkpt lat="50.54526" lon="3.43876">
        <ele>15.077201</ele>
        <time>2021-06-03T15:39:06.598Z</time>
      </trkpt>
      <trkpt lat="50.54535" lon="3.43869">
        <ele>15.05266</ele>
        <time>2021-06-03T15:39:08.729Z</time>
      </trkpt>
      <trkpt lat="50.54543" lon="3.43866">
        <ele>15.035263</ele>
        <time>2021-06-03T15:39:09.992Z</time>
      </trkpt>
      <trkpt lat="50.54554" lon="3.43862">
        <ele>15.009577</ele>
        <time>2021-06-03T15:39:11.518Z</time>
      </trkpt>
      <trkpt lat="50.54706" lon="3.43806">
        <ele>15.163134</ele>
        <time>2021-06-03T15:39:35.471Z</time>
      </trkpt>
      <trkpt lat="50.54713" lon="3.43803">
        <ele>15.197233</ele>
        <time>2021-06-03T15:39:36.733Z</time>
      </trkpt>
      <trkpt lat="50.54733" lon="3.43795">
        <ele>15.30354</ele>
        <time>2021-06-03T15:39:40.763Z</time>
      </trkpt>
      <trkpt lat="50.54791" lon="3.43766">
        <ele>15.604502</ele>
        <time>2021-06-03T15:39:51.992Z</time>
      </trkpt>
      <trkpt lat="50.54967" lon="3.43634">
        <ele>16.221708</ele>
        <time>2021-06-03T15:40:23.939Z</time>
      </trkpt>
      <trkpt lat="50.55012" lon="3.43602">
        <ele>16.096005</ele>
        <time>2021-06-03T15:40:30.368Z</time>
      </trkpt>
      <trkpt lat="50.55041" lon="3.43582">
        <ele>15.990292</ele>
        <time>2021-06-03T15:40:34.503Z</time>
      </trkpt>
      <trkpt lat="50.55069" lon="3.43549">
        <ele>15.874046</ele>
        <time>2021-06-03T15:40:39.058Z</time>
      </trkpt>
      <trkpt lat="50.55087" lon="3.43541">
        <ele>15.811151</ele>
        <time>2021-06-03T15:40:41.467Z</time>
      </trkpt>
      <trkpt lat="50.55102" lon="3.43536">
        <ele>15.759765</ele>
        <time>2021-06-03T15:40:43.545Z</time>
      </trkpt>
      <trkpt lat="50.5511" lon="3.43534">
        <ele>15.733395</ele>
        <time>2021-06-03T15:40:44.530Z</time>
      </trkpt>
      <trkpt lat="50.55121" lon="3.43525">
        <ele>15.691273</ele>
        <time>2021-06-03T15:40:46.172Z</time>
      </trkpt>
      <trkpt lat="50.5527" lon="3.43406">
        <ele>16.200589</ele>
        <time>2021-06-03T15:41:13.480Z</time>
      </trkpt>
      <trkpt lat="50.55356" lon="3.43369">
        <ele>16.40214</ele>
        <time>2021-06-03T15:41:29.046Z</time>
      </trkpt>
      <trkpt lat="50.55416" lon="3.4335">
        <ele>16.498026</ele>
        <time>2021-06-03T15:41:38.766Z</time>
      </trkpt>
      <trkpt lat="50.5546" lon="3.43342">
        <ele>16.567773</ele>
        <time>2021-06-03T15:41:45.119Z</time>
      </trkpt>
      <trkpt lat="50.5559" lon="3.43346">
        <ele>16.061341</ele>
        <time>2021-06-03T15:42:02.010Z</time>
      </trkpt>
      <trkpt lat="50.55712" lon="3.43385">
        <ele>15.975973</ele>
        <time>2021-06-03T15:42:19.117Z</time>
      </trkpt>
      <trkpt lat="50.55812" lon="3.43451">
        <ele>16.337635</ele>
        <time>2021-06-03T15:42:37.546Z</time>
      </trkpt>
      <trkpt lat="50.55875" lon="3.43506">
        <ele>16.885363</ele>
        <time>2021-06-03T15:42:51.093Z</time>
      </trkpt>
      <trkpt lat="50.55997" lon="3.43655">
        <ele>18.370651</ele>
        <time>2021-06-03T15:43:18.720Z</time>
      </trkpt>
      <trkpt lat="50.56071" lon="3.43784">
        <ele>19.897936</ele>
        <time>2021-06-03T15:43:41.760Z</time>
      </trkpt>
      <trkpt lat="50.56084" lon="3.43825">
        <ele>20.297839</ele>
        <time>2021-06-03T15:44:16.498Z</time>
      </trkpt>
      <trkpt lat="50.56158" lon="3.43942">
        <ele>21.13085</ele>
        <time>2021-06-03T15:46:20.550Z</time>
      </trkpt>
      <trkpt lat="50.56223" lon="3.44029">
        <ele>21.633957</ele>
        <time>2021-06-03T15:47:55.440Z</time>
      </trkpt>
      <trkpt lat="50.5623" lon="3.44038">
        <ele>21.477406</ele>
        <time>2021-06-03T15:48:05.651Z</time>
      </trkpt>
      <trkpt lat="50.56246" lon="3.44047">
        <ele>21.187943</ele>
        <time>2021-06-03T15:48:08.160Z</time>
      </trkpt>
      <trkpt lat="50.56268" lon="3.44063">
        <ele>20.764955</ele>
        <time>2021-06-03T15:48:12.452Z</time>
      </trkpt>
      <trkpt lat="50.56327" lon="3.44114">
        <ele>19.599779</ele>
        <time>2021-06-03T15:48:23.064Z</time>
      </trkpt>
      <trkpt lat="50.56367" lon="3.44147">
        <ele>18.814349</ele>
        <time>2021-06-03T15:48:29.777Z</time>
      </trkpt>
      <trkpt lat="50.56399" lon="3.4417">
        <ele>18.365993</ele>
        <time>2021-06-03T15:48:35.015Z</time>
      </trkpt>
      <trkpt lat="50.5654" lon="3.44229">
        <ele>16.785435</ele>
        <time>2021-06-03T15:49:00.426Z</time>
      </trkpt>
      <trkpt lat="50.56556" lon="3.44251">
        <ele>16.767474</ele>
        <time>2021-06-03T15:49:05.184Z</time>
      </trkpt>
      <trkpt lat="50.56562" lon="3.44265">
        <ele>16.8599</ele>
        <time>2021-06-03T15:49:07.442Z</time>
      </trkpt>
      <trkpt lat="50.56583" lon="3.44325">
        <ele>17.236108</ele>
        <time>2021-06-03T15:49:17.435Z</time>
      </trkpt>
      <trkpt lat="50.56585" lon="3.44344">
        <ele>17.340019</ele>
        <time>2021-06-03T15:49:20.355Z</time>
      </trkpt>
      <trkpt lat="50.56621" lon="3.4439">
        <ele>17.743053</ele>
        <time>2021-06-03T15:49:32.052Z</time>
      </trkpt>
      <trkpt lat="50.56627" lon="3.44398">
        <ele>17.808097</ele>
        <time>2021-06-03T15:49:34.249Z</time>
      </trkpt>
      <trkpt lat="50.5665" lon="3.4443">
        <ele>18.075478</ele>
        <time>2021-06-03T15:49:42.305Z</time>
      </trkpt>
      <trkpt lat="50.56717" lon="3.4448">
        <ele>18.675156</ele>
        <time>2021-06-03T15:50:01.024Z</time>
      </trkpt>
      <trkpt lat="50.56721" lon="3.44483">
        <ele>18.711428</ele>
        <time>2021-06-03T15:50:02.494Z</time>
      </trkpt>
      <trkpt lat="50.56726" lon="3.44486">
        <ele>18.754352</ele>
        <time>2021-06-03T15:50:03.872Z</time>
      </trkpt>
      <trkpt lat="50.56746" lon="3.44501">
        <ele>18.927806</ele>
        <time>2021-06-03T15:50:08.610Z</time>
      </trkpt>
      <trkpt lat="50.56752" lon="3.44504">
        <ele>18.979614</ele>
        <time>2021-06-03T15:50:10.184Z</time>
      </trkpt>
      <trkpt lat="50.56758" lon="3.4453">
        <ele>19.118337</ele>
        <time>2021-06-03T15:50:13.623Z</time>
      </trkpt>
      <trkpt lat="50.56765" lon="3.44531">
        <ele>19.175706</ele>
        <time>2021-06-03T15:50:14.667Z</time>
      </trkpt>
      <trkpt lat="50.56771" lon="3.44529">
        <ele>19.22263</ele>
        <time>2021-06-03T15:50:15.508Z</time>
      </trkpt>
      <trkpt lat="50.56778" lon="3.44523">
        <ele>19.289578</ele>
        <time>2021-06-03T15:50:17.120Z</time>
      </trkpt>
      <trkpt lat="50.56809" lon="3.44501">
        <ele>19.558673</ele>
        <time>2021-06-03T15:50:22.369Z</time>
      </trkpt>
      <trkpt lat="50.56832" lon="3.44485">
        <ele>19.657065</ele>
        <time>2021-06-03T15:50:26.329Z</time>
      </trkpt>
      <trkpt lat="50.56851" lon="3.44472">
        <ele>19.6643</ele>
        <time>2021-06-03T15:50:29.888Z</time>
      </trkpt>
      <trkpt lat="50.56874" lon="3.4445">
        <ele>19.673501</ele>
        <time>2021-06-03T15:50:33.516Z</time>
      </trkpt>
      <trkpt lat="50.56885" lon="3.44439">
        <ele>19.678006</ele>
        <time>2021-06-03T15:50:35.628Z</time>
      </trkpt>
      <trkpt lat="50.56893" lon="3.44434">
        <ele>19.680914</ele>
        <time>2021-06-03T15:50:36.794Z</time>
      </trkpt>
      <trkpt lat="50.56916" lon="3.44427">
        <ele>19.689014</ele>
        <time>2021-06-03T15:50:39.878Z</time>
      </trkpt>
      <trkpt lat="50.56944" lon="3.44418">
        <ele>19.698608</ele>
        <time>2021-06-03T15:50:43.872Z</time>
      </trkpt>
      <trkpt lat="50.56976" lon="3.44409">
        <ele>19.709779</ele>
        <time>2021-06-03T15:50:48.811Z</time>
      </trkpt>
      <trkpt lat="50.57037" lon="3.44381">
        <ele>19.852988</ele>
        <time>2021-06-03T15:50:59.091Z</time>
      </trkpt>
      <trkpt lat="50.57047" lon="3.44376">
        <ele>19.882021</ele>
        <time>2021-06-03T15:51:00.858Z</time>
      </trkpt>
      <trkpt lat="50.5707" lon="3.44371">
        <ele>19.946893</ele>
        <time>2021-06-03T15:51:04.771Z</time>
      </trkpt>
      <trkpt lat="50.57126" lon="3.44364">
        <ele>20.100821</ele>
        <time>2021-06-03T15:51:14.886Z</time>
      </trkpt>
      <trkpt lat="50.57202" lon="3.44368">
        <ele>20.03457</ele>
        <time>2021-06-03T15:51:25.448Z</time>
      </trkpt>
      <trkpt lat="50.57217" lon="3.44385">
        <ele>19.945706</ele>
        <time>2021-06-03T15:51:27.777Z</time>
      </trkpt>
      <trkpt lat="50.57214" lon="3.44392">
        <ele>19.923896</ele>
        <time>2021-06-03T15:51:28.707Z</time>
      </trkpt>
      <trkpt lat="50.57213" lon="3.44413">
        <ele>19.858898</ele>
        <time>2021-06-03T15:51:30.390Z</time>
      </trkpt>
      <trkpt lat="50.57216" lon="3.44421">
        <ele>19.833063</ele>
        <time>2021-06-03T15:51:31.243Z</time>
      </trkpt>
      <trkpt lat="50.57218" lon="3.44427">
        <ele>19.812518</ele>
        <time>2021-06-03T15:51:31.808Z</time>
      </trkpt>
      <trkpt lat="50.57222" lon="3.44432">
        <ele>19.78845</ele>
        <time>2021-06-03T15:51:32.364Z</time>
      </trkpt>
      <trkpt lat="50.57224" lon="3.44434">
        <ele>19.776432</ele>
        <time>2021-06-03T15:51:32.658Z</time>
      </trkpt>
      <trkpt lat="50.57226" lon="3.44436">
        <ele>19.76484</ele>
        <time>2021-06-03T15:51:33.111Z</time>
      </trkpt>
      <trkpt lat="50.57233" lon="3.44437">
        <ele>19.734499</ele>
        <time>2021-06-03T15:51:34.134Z</time>
      </trkpt>
      <trkpt lat="50.57238" lon="3.44437">
        <ele>19.708893</ele>
        <time>2021-06-03T15:51:34.825Z</time>
      </trkpt>
      <trkpt lat="50.57241" lon="3.44436">
        <ele>19.69485</ele>
        <time>2021-06-03T15:51:35.166Z</time>
      </trkpt>
      <trkpt lat="50.57243" lon="3.44435">
        <ele>19.683246</ele>
        <time>2021-06-03T15:51:35.422Z</time>
      </trkpt>
      <trkpt lat="50.57249" lon="3.44428">
        <ele>19.647894</ele>
        <time>2021-06-03T15:51:36.613Z</time>
      </trkpt>
      <trkpt lat="50.57252" lon="3.44422">
        <ele>19.625039</ele>
        <time>2021-06-03T15:51:37.169Z</time>
      </trkpt>
      <trkpt lat="50.57254" lon="3.44419">
        <ele>19.612603</ele>
        <time>2021-06-03T15:51:37.441Z</time>
      </trkpt>
      <trkpt lat="50.57255" lon="3.44396">
        <ele>19.542977</ele>
        <time>2021-06-03T15:51:39.703Z</time>
      </trkpt>
      <trkpt lat="50.57252" lon="3.44385">
        <ele>19.507647</ele>
        <time>2021-06-03T15:51:40.572Z</time>
      </trkpt>
      <trkpt lat="50.57266" lon="3.44374">
        <ele>19.43379</ele>
        <time>2021-06-03T15:51:42.528Z</time>
      </trkpt>
      <trkpt lat="50.57276" lon="3.4437">
        <ele>19.382498</ele>
        <time>2021-06-03T15:51:44.280Z</time>
      </trkpt>
      <trkpt lat="50.57346" lon="3.44374">
        <ele>19.054726</ele>
        <time>2021-06-03T15:51:53.306Z</time>
      </trkpt>
      <trkpt lat="50.57427" lon="3.44377">
        <ele>18.675051</ele>
        <time>2021-06-03T15:52:03.908Z</time>
      </trkpt>
      <trkpt lat="50.57535" lon="3.44384">
        <ele>18.299698</ele>
        <time>2021-06-03T15:52:19.684Z</time>
      </trkpt>
      <trkpt lat="50.57633" lon="3.44381">
        <ele>18.019863</ele>
        <time>2021-06-03T15:52:33.002Z</time>
      </trkpt>
      <trkpt lat="50.57733" lon="3.4437">
        <ele>17.742194</ele>
        <time>2021-06-03T15:52:46.047Z</time>
      </trkpt>
      <trkpt lat="50.57852" lon="3.44354">
        <ele>17.647677</ele>
        <time>2021-06-03T15:53:03.499Z</time>
      </trkpt>
      <trkpt lat="50.5786" lon="3.44352">
        <ele>17.686561</ele>
        <time>2021-06-03T15:53:04.992Z</time>
      </trkpt>
      <trkpt lat="50.57901" lon="3.44345">
        <ele>17.887875</ele>
        <time>2021-06-03T15:53:12.045Z</time>
      </trkpt>
      <trkpt lat="50.58088" lon="3.44256">
        <ele>18.813737</ele>
        <time>2021-06-03T15:53:45.990Z</time>
      </trkpt>
      <trkpt lat="50.58104" lon="3.44247">
        <ele>18.896399</ele>
        <time>2021-06-03T15:53:48.744Z</time>
      </trkpt>
      <trkpt lat="50.58231" lon="3.44094">
        <ele>19.343804</ele>
        <time>2021-06-03T15:54:14.217Z</time>
      </trkpt>
      <trkpt lat="50.5832" lon="3.43947">
        <ele>19.280915</ele>
        <time>2021-06-03T15:54:33.434Z</time>
      </trkpt>
      <trkpt lat="50.58322" lon="3.43944">
        <ele>19.267281</ele>
        <time>2021-06-03T15:54:34.065Z</time>
      </trkpt>
      <trkpt lat="50.58498" lon="3.43639">
        <ele>17.985303</ele>
        <time>2021-06-03T15:55:08.088Z</time>
      </trkpt>
      <trkpt lat="50.58584" lon="3.43445">
        <ele>17.126727</ele>
        <time>2021-06-03T15:55:28.266Z</time>
      </trkpt>
      <trkpt lat="50.58677" lon="3.43278">
        <ele>16.290599</ele>
        <time>2021-06-03T15:55:46.148Z</time>
      </trkpt>
      <trkpt lat="50.58677" lon="3.43278">
        <ele>16.290599</ele>
        <time>2021-06-03T15:55:46.154Z</time>
      </trkpt>
      <trkpt lat="50.5871" lon="3.43211">
        <ele>15.965649</ele>
        <time>2021-06-03T15:55:53.301Z</time>
      </trkpt>
      <trkpt lat="50.58743" lon="3.43142">
        <ele>15.631778</ele>
        <time>2021-06-03T15:56:00.643Z</time>
      </trkpt>
      <trkpt lat="50.58744" lon="3.4314">
        <ele>15.622006</ele>
        <time>2021-06-03T15:56:00.856Z</time>
      </trkpt>
      <trkpt lat="50.58753" lon="3.43121">
        <ele>15.553822</ele>
        <time>2021-06-03T15:56:02.871Z</time>
      </trkpt>
      <trkpt lat="50.58761" lon="3.43104">
        <ele>15.549746</ele>
        <time>2021-06-03T15:56:04.807Z</time>
      </trkpt>
      <trkpt lat="50.58768" lon="3.43087">
        <ele>15.545688</ele>
        <time>2021-06-03T15:56:06.483Z</time>
      </trkpt>
      <trkpt lat="50.58795" lon="3.4303">
        <ele>15.53186</ele>
        <time>2021-06-03T15:56:13.038Z</time>
      </trkpt>
      <trkpt lat="50.58834" lon="3.42948">
        <ele>15.512059</ele>
        <time>2021-06-03T15:56:23.242Z</time>
      </trkpt>
      <trkpt lat="50.58854" lon="3.42906">
        <ele>15.502079</ele>
        <time>2021-06-03T15:56:28.372Z</time>
      </trkpt>
      <trkpt lat="50.58913" lon="3.42748">
        <ele>15.595613</ele>
        <time>2021-06-03T15:56:46.088Z</time>
      </trkpt>
      <trkpt lat="50.58932" lon="3.42698">
        <ele>15.628326</ele>
        <time>2021-06-03T15:56:51.691Z</time>
      </trkpt>
      <trkpt lat="50.58949" lon="3.42644">
        <ele>15.674847</ele>
        <time>2021-06-03T15:56:57.424Z</time>
      </trkpt>
      <trkpt lat="50.5896" lon="3.4262">
        <ele>15.735127</ele>
        <time>2021-06-03T15:57:00.136Z</time>
      </trkpt>
      <trkpt lat="50.58981" lon="3.42598">
        <ele>15.816744</ele>
        <time>2021-06-03T15:57:03.883Z</time>
      </trkpt>
      <trkpt lat="50.58993" lon="3.42587">
        <ele>15.863282</ele>
        <time>2021-06-03T15:57:06.143Z</time>
      </trkpt>
      <trkpt lat="50.58996" lon="3.42584">
        <ele>15.874332</ele>
        <time>2021-06-03T15:57:06.673Z</time>
      </trkpt>
      <trkpt lat="50.58998" lon="3.4258">
        <ele>15.884962</ele>
        <time>2021-06-03T15:57:07.201Z</time>
      </trkpt>
      <trkpt lat="50.58999" lon="3.42577">
        <ele>15.893407</ele>
        <time>2021-06-03T15:57:07.539Z</time>
      </trkpt>
      <trkpt lat="50.59" lon="3.42569">
        <ele>15.910178</ele>
        <time>2021-06-03T15:57:08.374Z</time>
      </trkpt>
      <trkpt lat="50.58999" lon="3.42565">
        <ele>15.918755</ele>
        <time>2021-06-03T15:57:08.714Z</time>
      </trkpt>
      <trkpt lat="50.58997" lon="3.42562">
        <ele>15.925234</ele>
        <time>2021-06-03T15:57:08.984Z</time>
      </trkpt>
      <trkpt lat="50.58996" lon="3.4256">
        <ele>15.931672</ele>
        <time>2021-06-03T15:57:09.254Z</time>
      </trkpt>
      <trkpt lat="50.58998" lon="3.42542">
        <ele>15.969358</ele>
        <time>2021-06-03T15:57:11.125Z</time>
      </trkpt>
      <trkpt lat="50.59009" lon="3.42506">
        <ele>16.052499</ele>
        <time>2021-06-03T15:57:15.337Z</time>
      </trkpt>
      <trkpt lat="50.59026" lon="3.42465">
        <ele>16.151792</ele>
        <time>2021-06-03T15:57:20.718Z</time>
      </trkpt>
      <trkpt lat="50.59049" lon="3.42433">
        <ele>16.282475</ele>
        <time>2021-06-03T15:57:26.246Z</time>
      </trkpt>
      <trkpt lat="50.5909" lon="3.42381">
        <ele>16.892501</ele>
        <time>2021-06-03T15:57:35.312Z</time>
      </trkpt>
      <trkpt lat="50.5911" lon="3.4241">
        <ele>17.210933</ele>
        <time>2021-06-03T15:57:42.194Z</time>
      </trkpt>
      <trkpt lat="50.59135" lon="3.42439">
        <ele>17.566069</ele>
        <time>2021-06-03T15:57:49.991Z</time>
      </trkpt>
      <trkpt lat="50.59158" lon="3.42467">
        <ele>17.899211</ele>
        <time>2021-06-03T15:57:57.279Z</time>
      </trkpt>
      <trkpt lat="50.59176" lon="3.42479">
        <ele>18.124274</ele>
        <time>2021-06-03T15:58:02.219Z</time>
      </trkpt>
      <trkpt lat="50.59201" lon="3.42483">
        <ele>18.496837</ele>
        <time>2021-06-03T15:58:08.966Z</time>
      </trkpt>
      <trkpt lat="50.59207" lon="3.42455">
        <ele>18.908088</ele>
        <time>2021-06-03T15:58:14.310Z</time>
      </trkpt>
      <trkpt lat="50.59214" lon="3.42433">
        <ele>19.234896</ele>
        <time>2021-06-03T15:58:18.675Z</time>
      </trkpt>
      <trkpt lat="50.59214" lon="3.42433">
        <ele>19.234896</ele>
        <time>2021-06-03T15:58:18.704Z</time>
      </trkpt>
      <trkpt lat="50.59234" lon="3.42399">
        <ele>19.869292</ele>
        <time>2021-06-03T15:58:27.117Z</time>
      </trkpt>
      <trkpt lat="50.59245" lon="3.42391">
        <ele>20.147268</ele>
        <time>2021-06-03T15:58:31.082Z</time>
      </trkpt>
      <trkpt lat="50.59263" lon="3.42397">
        <ele>20.549591</ele>
        <time>2021-06-03T15:58:36.367Z</time>
      </trkpt>
      <trkpt lat="50.59295" lon="3.42449">
        <ele>21.523599</ele>
        <time>2021-06-03T15:58:49.176Z</time>
      </trkpt>
      <trkpt lat="50.5931" lon="3.42496">
        <ele>22.276069</ele>
        <time>2021-06-03T15:58:59.021Z</time>
      </trkpt>
      <trkpt lat="50.59317" lon="3.42514">
        <ele>22.665931</ele>
        <time>2021-06-03T15:59:03.654Z</time>
      </trkpt>
      <trkpt lat="50.5933" lon="3.42538">
        <ele>23.231594</ele>
        <time>2021-06-03T15:59:09.804Z</time>
      </trkpt>
      <trkpt lat="50.59351" lon="3.42568">
        <ele>24.048816</ele>
        <time>2021-06-03T15:59:19.522Z</time>
      </trkpt>
      <trkpt lat="50.59404" lon="3.42451">
        <ele>26.667219</ele>
        <time>2021-06-03T15:59:50.233Z</time>
      </trkpt>
      <trkpt lat="50.5941" lon="3.42433">
        <ele>27.038023</ele>
        <time>2021-06-03T15:59:54.761Z</time>
      </trkpt>
      <trkpt lat="50.5944" lon="3.42345">
        <ele>27.589132</ele>
        <time>2021-06-03T16:00:11.335Z</time>
      </trkpt>
      <trkpt lat="50.59477" lon="3.42263">
        <ele>27.860135</ele>
        <time>2021-06-03T16:00:25.759Z</time>
      </trkpt>
      <trkpt lat="50.59483" lon="3.42252">
        <ele>27.898832</ele>
        <time>2021-06-03T16:00:27.255Z</time>
      </trkpt>
      <trkpt lat="50.59515" lon="3.42208">
        <ele>28.08161</ele>
        <time>2021-06-03T16:00:35.283Z</time>
      </trkpt>
      <trkpt lat="50.59582" lon="3.42112">
        <ele>27.170492</ele>
        <time>2021-06-03T16:00:50.024Z</time>
      </trkpt>
      <trkpt lat="50.59694" lon="3.41944">
        <ele>25.709903</ele>
        <time>2021-06-03T16:01:16.288Z</time>
      </trkpt>
      <trkpt lat="50.59729" lon="3.41891">
        <ele>25.5333</ele>
        <time>2021-06-03T16:01:26.625Z</time>
      </trkpt>
      <trkpt lat="50.5979" lon="3.41797">
        <ele>25.246583</ele>
        <time>2021-06-03T16:01:43.504Z</time>
      </trkpt>
      <trkpt lat="50.59803" lon="3.41777">
        <ele>25.242508</ele>
        <time>2021-06-03T16:01:47.032Z</time>
      </trkpt>
      <trkpt lat="50.59889" lon="3.41646">
        <ele>25.216083</ele>
        <time>2021-06-03T16:02:11.099Z</time>
      </trkpt>
      <trkpt lat="50.59936" lon="3.41576">
        <ele>25.355679</ele>
        <time>2021-06-03T16:02:24.149Z</time>
      </trkpt>
      <trkpt lat="50.59955" lon="3.41545">
        <ele>25.498357</ele>
        <time>2021-06-03T16:02:30.477Z</time>
      </trkpt>
      <trkpt lat="50.59955" lon="3.41545">
        <ele>25.498357</ele>
        <time>2021-06-03T16:02:30.479Z</time>
      </trkpt>
      <trkpt lat="50.59962" lon="3.41532">
        <ele>25.554615</ele>
        <time>2021-06-03T16:02:32.671Z</time>
      </trkpt>
      <trkpt lat="50.59963" lon="3.41528">
        <ele>25.568073</ele>
        <time>2021-06-03T16:02:33.869Z</time>
      </trkpt>
      <trkpt lat="50.59971" lon="3.41493">
        <ele>25.687333</ele>
        <time>2021-06-03T16:02:38.759Z</time>
      </trkpt>
      <trkpt lat="50.59973" lon="3.41391">
        <ele>26.020939</ele>
        <time>2021-06-03T16:02:53.857Z</time>
      </trkpt>
      <trkpt lat="50.59976" lon="3.41364">
        <ele>26.107542</ele>
        <time>2021-06-03T16:02:57.535Z</time>
      </trkpt>
      <trkpt lat="50.59978" lon="3.41338">
        <ele>26.19468</ele>
        <time>2021-06-03T16:03:01.644Z</time>
      </trkpt>
      <trkpt lat="50.59982" lon="3.4131">
        <ele>26.286967</ele>
        <time>2021-06-03T16:03:05.596Z</time>
      </trkpt>
      <trkpt lat="50.59985" lon="3.41311">
        <ele>26.30551</ele>
        <time>2021-06-03T16:03:06.976Z</time>
      </trkpt>
      <trkpt lat="50.59994" lon="3.413">
        <ele>26.359201</ele>
        <time>2021-06-03T16:03:09.189Z</time>
      </trkpt>
      <trkpt lat="50.59994" lon="3.41295">
        <ele>26.377719</ele>
        <time>2021-06-03T16:03:10.062Z</time>
      </trkpt>
      <trkpt lat="50.60013" lon="3.41292">
        <ele>26.475023</ele>
        <time>2021-06-03T16:03:14.308Z</time>
      </trkpt>
      <trkpt lat="50.60035" lon="3.4129">
        <ele>26.587371</ele>
        <time>2021-06-03T16:03:19.109Z</time>
      </trkpt>
      <trkpt lat="50.60046" lon="3.41292">
        <ele>26.64524</ele>
        <time>2021-06-03T16:03:21.617Z</time>
      </trkpt>
      <trkpt lat="50.60061" lon="3.41294">
        <ele>26.722618</ele>
        <time>2021-06-03T16:03:24.606Z</time>
      </trkpt>
      <trkpt lat="50.60125" lon="3.41312">
        <ele>27.057675</ele>
        <time>2021-06-03T16:03:38.314Z</time>
      </trkpt>
      <trkpt lat="50.60198" lon="3.41403">
        <ele>28.049952</ele>
        <time>2021-06-03T16:04:00.768Z</time>
      </trkpt>
      <trkpt lat="50.60292" lon="3.41484">
        <ele>28.9502</ele>
        <time>2021-06-03T16:04:28.786Z</time>
      </trkpt>
      <trkpt lat="50.60332" lon="3.41516">
        <ele>28.93177</ele>
        <time>2021-06-03T16:04:39.050Z</time>
      </trkpt>
      <trkpt lat="50.60406" lon="3.41543">
        <ele>28.900497</ele>
        <time>2021-06-03T16:04:54.442Z</time>
      </trkpt>
      <trkpt lat="50.60415" lon="3.41546">
        <ele>28.896959</ele>
        <time>2021-06-03T16:04:56.021Z</time>
      </trkpt>
      <trkpt lat="50.60418" lon="3.41546">
        <ele>28.895763</ele>
        <time>2021-06-03T16:04:56.531Z</time>
      </trkpt>
      <trkpt lat="50.60421" lon="3.41547">
        <ele>28.894487</ele>
        <time>2021-06-03T16:04:57.089Z</time>
      </trkpt>
      <trkpt lat="50.60433" lon="3.41554">
        <ele>28.889083</ele>
        <time>2021-06-03T16:04:58.610Z</time>
      </trkpt>
      <trkpt lat="50.60515" lon="3.41598">
        <ele>26.772184</ele>
        <time>2021-06-03T16:05:08.048Z</time>
      </trkpt>
      <trkpt lat="50.6058" lon="3.41633">
        <ele>24.878569</ele>
        <time>2021-06-03T16:05:14.862Z</time>
      </trkpt>
      <trkpt lat="50.60611" lon="3.41646">
        <ele>24.004996</ele>
        <time>2021-06-03T16:05:18.056Z</time>
      </trkpt>
      <trkpt lat="50.60621" lon="3.41645">
        <ele>23.754242</ele>
        <time>2021-06-03T16:05:19.111Z</time>
      </trkpt>
      <trkpt lat="50.60634" lon="3.41641">
        <ele>23.42914</ele>
        <time>2021-06-03T16:05:20.424Z</time>
      </trkpt>
      <trkpt lat="50.60683" lon="3.41584">
        <ele>21.934727</ele>
        <time>2021-06-03T16:05:26.745Z</time>
      </trkpt>
      <trkpt lat="50.60694" lon="3.4158">
        <ele>21.656519</ele>
        <time>2021-06-03T16:05:27.897Z</time>
      </trkpt>
      <trkpt lat="50.60704" lon="3.41577">
        <ele>21.408475</ele>
        <time>2021-06-03T16:05:28.960Z</time>
      </trkpt>
      <trkpt lat="50.60707" lon="3.41577">
        <ele>21.334039</ele>
        <time>2021-06-03T16:05:29.287Z</time>
      </trkpt>
      <trkpt lat="50.60722" lon="3.4158">
        <ele>20.970224</ele>
        <time>2021-06-03T16:05:30.903Z</time>
      </trkpt>
      <trkpt lat="50.60731" lon="3.41583">
        <ele>20.732036</ele>
        <time>2021-06-03T16:05:31.920Z</time>
      </trkpt>
      <trkpt lat="50.60739" lon="3.41586">
        <ele>20.537547</ele>
        <time>2021-06-03T16:05:32.765Z</time>
      </trkpt>
      <trkpt lat="50.60751" lon="3.4161">
        <ele>20.050282</ele>
        <time>2021-06-03T16:05:35.001Z</time>
      </trkpt>
      <trkpt lat="50.60774" lon="3.41656">
        <ele>19.47322</ele>
        <time>2021-06-03T16:05:39.224Z</time>
      </trkpt>
      <trkpt lat="50.608" lon="3.41706">
        <ele>19.294377</ele>
        <time>2021-06-03T16:05:44.445Z</time>
      </trkpt>
      <trkpt lat="50.60851" lon="3.41818">
        <ele>18.913013</ele>
        <time>2021-06-03T16:05:57.780Z</time>
      </trkpt>
      <trkpt lat="50.60855" lon="3.4186">
        <ele>18.797072</ele>
        <time>2021-06-03T16:06:01.675Z</time>
      </trkpt>
      <trkpt lat="50.60857" lon="3.41948">
        <ele>18.719583</ele>
        <time>2021-06-03T16:06:09.555Z</time>
      </trkpt>
      <trkpt lat="50.60864" lon="3.41995">
        <ele>18.692806</ele>
        <time>2021-06-03T16:06:14.046Z</time>
      </trkpt>
      <trkpt lat="50.60889" lon="3.42067">
        <ele>18.647439</ele>
        <time>2021-06-03T16:06:21.749Z</time>
      </trkpt>
      <trkpt lat="50.60891" lon="3.42075">
        <ele>18.642914</ele>
        <time>2021-06-03T16:06:22.521Z</time>
      </trkpt>
      <trkpt lat="50.60911" lon="3.42123">
        <ele>18.611306</ele>
        <time>2021-06-03T16:06:27.853Z</time>
      </trkpt>
      <trkpt lat="50.60936" lon="3.42174">
        <ele>18.647076</ele>
        <time>2021-06-03T16:06:33.738Z</time>
      </trkpt>
      <trkpt lat="50.60961" lon="3.42221">
        <ele>18.697553</ele>
        <time>2021-06-03T16:06:39.420Z</time>
      </trkpt>
      <trkpt lat="50.61011" lon="3.42297">
        <ele>18.786314</ele>
        <time>2021-06-03T16:06:50.001Z</time>
      </trkpt>
      <trkpt lat="50.6103" lon="3.42328">
        <ele>18.821045</ele>
        <time>2021-06-03T16:06:54.501Z</time>
      </trkpt>
      <trkpt lat="50.61036" lon="3.42337">
        <ele>18.831847</ele>
        <time>2021-06-03T16:06:55.914Z</time>
      </trkpt>
      <trkpt lat="50.6108" lon="3.42436">
        <ele>19.541205</ele>
        <time>2021-06-03T16:07:09.124Z</time>
      </trkpt>
      <trkpt lat="50.61131" lon="3.42528">
        <ele>20.278553</ele>
        <time>2021-06-03T16:07:23.949Z</time>
      </trkpt>
      <trkpt lat="50.61172" lon="3.42595">
        <ele>20.78916</ele>
        <time>2021-06-03T16:07:36.679Z</time>
      </trkpt>
      <trkpt lat="50.61199" lon="3.42649">
        <ele>21.127313</ele>
        <time>2021-06-03T16:07:45.247Z</time>
      </trkpt>
      <trkpt lat="50.61243" lon="3.4275">
        <ele>21.729616</ele>
        <time>2021-06-03T16:07:58.583Z</time>
      </trkpt>
      <trkpt lat="50.61261" lon="3.42801">
        <ele>21.929556</ele>
        <time>2021-06-03T16:08:06.331Z</time>
      </trkpt>
      <trkpt lat="50.61271" lon="3.42836">
        <ele>21.885245</ele>
        <time>2021-06-03T16:08:09.794Z</time>
      </trkpt>
      <trkpt lat="50.6129" lon="3.4292">
        <ele>21.783314</ele>
        <time>2021-06-03T16:08:17.781Z</time>
      </trkpt>
      <trkpt lat="50.61313" lon="3.43021">
        <ele>21.659025</ele>
        <time>2021-06-03T16:08:26.671Z</time>
      </trkpt>
      <trkpt lat="50.61394" lon="3.43368">
        <ele>21.859257</ele>
        <time>2021-06-03T16:09:02.837Z</time>
      </trkpt>
      <trkpt lat="50.61422" lon="3.43467">
        <ele>22.013307</ele>
        <time>2021-06-03T16:09:14.052Z</time>
      </trkpt>
      <trkpt lat="50.61474" lon="3.43589">
        <ele>22.244547</ele>
        <time>2021-06-03T16:09:28.569Z</time>
      </trkpt>
      <trkpt lat="50.61497" lon="3.43694">
        <ele>22.507468</ele>
        <time>2021-06-03T16:09:39.420Z</time>
      </trkpt>
      <trkpt lat="50.6152" lon="3.4384">
        <ele>22.869016</ele>
        <time>2021-06-03T16:09:55.523Z</time>
      </trkpt>
      <trkpt lat="50.61523" lon="3.43855">
        <ele>22.969088</ele>
        <time>2021-06-03T16:09:57.269Z</time>
      </trkpt>
      <trkpt lat="50.6153" lon="3.43904">
        <ele>23.292589</ele>
        <time>2021-06-03T16:10:03.071Z</time>
      </trkpt>
      <trkpt lat="50.61544" lon="3.43992">
        <ele>23.865962</ele>
        <time>2021-06-03T16:10:13.782Z</time>
      </trkpt>
      <trkpt lat="50.61568" lon="3.44194">
        <ele>25.015269</ele>
        <time>2021-06-03T16:10:39.534Z</time>
      </trkpt>
      <trkpt lat="50.61569" lon="3.4425">
        <ele>25.265762</ele>
        <time>2021-06-03T16:10:46.067Z</time>
      </trkpt>
      <trkpt lat="50.6157" lon="3.44261">
        <ele>25.313576</ele>
        <time>2021-06-03T16:10:47.516Z</time>
      </trkpt>
      <trkpt lat="50.61569" lon="3.44279">
        <ele>25.394771</ele>
        <time>2021-06-03T16:10:49.489Z</time>
      </trkpt>
      <trkpt lat="50.61561" lon="3.44342">
        <ele>25.682826</ele>
        <time>2021-06-03T16:10:56.408Z</time>
      </trkpt>
      <trkpt lat="50.61553" lon="3.44375">
        <ele>25.839253</ele>
        <time>2021-06-03T16:11:00.082Z</time>
      </trkpt>
      <trkpt lat="50.6152" lon="3.44451">
        <ele>25.823746</ele>
        <time>2021-06-03T16:11:08.822Z</time>
      </trkpt>
      <trkpt lat="50.61501" lon="3.44484">
        <ele>25.767025</ele>
        <time>2021-06-03T16:11:12.948Z</time>
      </trkpt>
      <trkpt lat="50.61473" lon="3.44542">
        <ele>25.672246</ele>
        <time>2021-06-03T16:11:19.250Z</time>
      </trkpt>
      <trkpt lat="50.61442" lon="3.44629">
        <ele>25.530761</ele>
        <time>2021-06-03T16:11:27.697Z</time>
      </trkpt>
      <trkpt lat="50.61424" lon="3.44721">
        <ele>25.239699</ele>
        <time>2021-06-03T16:11:35.688Z</time>
      </trkpt>
      <trkpt lat="50.61399" lon="3.45039">
        <ele>24.342121</ele>
        <time>2021-06-03T16:12:03.066Z</time>
      </trkpt>
      <trkpt lat="50.614" lon="3.45082">
        <ele>24.234043</ele>
        <time>2021-06-03T16:12:06.758Z</time>
      </trkpt>
      <trkpt lat="50.61407" lon="3.45134">
        <ele>24.102326</ele>
        <time>2021-06-03T16:12:11.250Z</time>
      </trkpt>
      <trkpt lat="50.61447" lon="3.45289">
        <ele>24.054132</ele>
        <time>2021-06-03T16:12:25.965Z</time>
      </trkpt>
      <trkpt lat="50.61458" lon="3.45388">
        <ele>24.1114</ele>
        <time>2021-06-03T16:12:36.077Z</time>
      </trkpt>
      <trkpt lat="50.61461" lon="3.45436">
        <ele>24.138557</ele>
        <time>2021-06-03T16:12:41.125Z</time>
      </trkpt>
      <trkpt lat="50.6147" lon="3.4558">
        <ele>24.919916</ele>
        <time>2021-06-03T16:12:57.670Z</time>
      </trkpt>
      <trkpt lat="50.61478" lon="3.45763">
        <ele>26.015172</ele>
        <time>2021-06-03T16:13:20.309Z</time>
      </trkpt>
      <trkpt lat="50.61472" lon="3.4582">
        <ele>26.385382</ele>
        <time>2021-06-03T16:13:27.313Z</time>
      </trkpt>
      <trkpt lat="50.61452" lon="3.45923">
        <ele>27.073993</ele>
        <time>2021-06-03T16:13:40.100Z</time>
      </trkpt>
      <trkpt lat="50.6145" lon="3.45985">
        <ele>27.466648</ele>
        <time>2021-06-03T16:13:47.402Z</time>
      </trkpt>
      <trkpt lat="50.61461" lon="3.46028">
        <ele>27.748055</ele>
        <time>2021-06-03T16:13:52.908Z</time>
      </trkpt>
      <trkpt lat="50.61476" lon="3.46064">
        <ele>27.99571</ele>
        <time>2021-06-03T16:13:58.083Z</time>
      </trkpt>
      <trkpt lat="50.61557" lon="3.46223">
        <ele>29.151881</ele>
        <time>2021-06-03T16:14:21.808Z</time>
      </trkpt>
      <trkpt lat="50.61571" lon="3.46281">
        <ele>29.435725</ele>
        <time>2021-06-03T16:14:28.977Z</time>
      </trkpt>
      <trkpt lat="50.61573" lon="3.46302">
        <ele>29.524052</ele>
        <time>2021-06-03T16:14:31.501Z</time>
      </trkpt>
      <trkpt lat="50.61572" lon="3.46324">
        <ele>29.614769</ele>
        <time>2021-06-03T16:14:33.937Z</time>
      </trkpt>
      <trkpt lat="50.61571" lon="3.46346">
        <ele>29.705968</ele>
        <time>2021-06-03T16:14:36.415Z</time>
      </trkpt>
      <trkpt lat="50.61559" lon="3.46447">
        <ele>30.131274</ele>
        <time>2021-06-03T16:14:47.902Z</time>
      </trkpt>
      <trkpt lat="50.61529" lon="3.46685">
        <ele>30.76512</ele>
        <time>2021-06-03T16:15:12.832Z</time>
      </trkpt>
      <trkpt lat="50.61527" lon="3.46703">
        <ele>30.802218</ele>
        <time>2021-06-03T16:15:14.539Z</time>
      </trkpt>
      <trkpt lat="50.61522" lon="3.46849">
        <ele>31.089172</ele>
        <time>2021-06-03T16:15:29.606Z</time>
      </trkpt>
      <trkpt lat="50.61518" lon="3.46985">
        <ele>31.348746</ele>
        <time>2021-06-03T16:15:43.269Z</time>
      </trkpt>
      <trkpt lat="50.61517" lon="3.47009">
        <ele>31.394135</ele>
        <time>2021-06-03T16:15:45.768Z</time>
      </trkpt>
      <trkpt lat="50.61511" lon="3.47175">
        <ele>31.741255</ele>
        <time>2021-06-03T16:16:03.421Z</time>
      </trkpt>
      <trkpt lat="50.61516" lon="3.47267">
        <ele>31.944932</ele>
        <time>2021-06-03T16:16:12.960Z</time>
      </trkpt>
      <trkpt lat="50.6152" lon="3.4732">
        <ele>32.062556</ele>
        <time>2021-06-03T16:16:18.400Z</time>
      </trkpt>
      <trkpt lat="50.6152" lon="3.47351">
        <ele>32.130307</ele>
        <time>2021-06-03T16:16:21.615Z</time>
      </trkpt>
      <trkpt lat="50.61466" lon="3.47636">
        <ele>32.273364</ele>
        <time>2021-06-03T16:16:50.500Z</time>
      </trkpt>
      <trkpt lat="50.61462" lon="3.47684">
        <ele>32.11937</ele>
        <time>2021-06-03T16:16:54.748Z</time>
      </trkpt>
      <trkpt lat="50.61456" lon="3.47747">
        <ele>31.915654</ele>
        <time>2021-06-03T16:17:00.179Z</time>
      </trkpt>
      <trkpt lat="50.6145" lon="3.47903">
        <ele>31.418582</ele>
        <time>2021-06-03T16:17:12.942Z</time>
      </trkpt>
      <trkpt lat="50.61457" lon="3.47998">
        <ele>31.214693</ele>
        <time>2021-06-03T16:17:20.541Z</time>
      </trkpt>
      <trkpt lat="50.61467" lon="3.4804">
        <ele>31.12648</ele>
        <time>2021-06-03T16:17:24.156Z</time>
      </trkpt>
      <trkpt lat="50.6153" lon="3.48217">
        <ele>31.125293</ele>
        <time>2021-06-03T16:17:43.308Z</time>
      </trkpt>
      <trkpt lat="50.61546" lon="3.48266">
        <ele>31.456516</ele>
        <time>2021-06-03T16:17:49.437Z</time>
      </trkpt>
      <trkpt lat="50.61616" lon="3.48449">
        <ele>32.851747</ele>
        <time>2021-06-03T16:18:16.995Z</time>
      </trkpt>
      <trkpt lat="50.61642" lon="3.48524">
        <ele>33.594514</ele>
        <time>2021-06-03T16:18:28.457Z</time>
      </trkpt>
      <trkpt lat="50.61656" lon="3.48576">
        <ele>34.079245</ele>
        <time>2021-06-03T16:18:35.696Z</time>
      </trkpt>
      <trkpt lat="50.61677" lon="3.48707">
        <ele>35.293008</ele>
        <time>2021-06-03T16:18:52.664Z</time>
      </trkpt>
      <trkpt lat="50.6171" lon="3.48841">
        <ele>36.726206</ele>
        <time>2021-06-03T16:19:11.203Z</time>
      </trkpt>
      <trkpt lat="50.61729" lon="3.489">
        <ele>37.380995</ele>
        <time>2021-06-03T16:19:20.084Z</time>
      </trkpt>
      <trkpt lat="50.61733" lon="3.48914">
        <ele>37.5384</ele>
        <time>2021-06-03T16:19:22.549Z</time>
      </trkpt>
      <trkpt lat="50.6174" lon="3.48951">
        <ele>37.980413</ele>
        <time>2021-06-03T16:19:27.862Z</time>
      </trkpt>
      <trkpt lat="50.61744" lon="3.48989">
        <ele>38.582815</ele>
        <time>2021-06-03T16:19:33.939Z</time>
      </trkpt>
      <trkpt lat="50.6175" lon="3.49122">
        <ele>40.697765</ele>
        <time>2021-06-03T16:19:55.475Z</time>
      </trkpt>
      <trkpt lat="50.61749" lon="3.49134">
        <ele>40.885519</ele>
        <time>2021-06-03T16:19:57.510Z</time>
      </trkpt>
      <trkpt lat="50.61748" lon="3.49147">
        <ele>41.100911</ele>
        <time>2021-06-03T16:19:59.648Z</time>
      </trkpt>
      <trkpt lat="50.61729" lon="3.49163">
        <ele>41.633556</ele>
        <time>2021-06-03T16:20:05.101Z</time>
      </trkpt>
      <trkpt lat="50.61726" lon="3.49178">
        <ele>41.883845</ele>
        <time>2021-06-03T16:20:07.591Z</time>
      </trkpt>
      <trkpt lat="50.61726" lon="3.49192">
        <ele>42.113946</ele>
        <time>2021-06-03T16:20:10.024Z</time>
      </trkpt>
      <trkpt lat="50.61736" lon="3.49212">
        <ele>42.448825</ele>
        <time>2021-06-03T16:20:13.806Z</time>
      </trkpt>
      <trkpt lat="50.61747" lon="3.49238">
        <ele>42.775634</ele>
        <time>2021-06-03T16:20:18.911Z</time>
      </trkpt>
      <trkpt lat="50.61756" lon="3.49253">
        <ele>42.98943</ele>
        <time>2021-06-03T16:20:22.052Z</time>
      </trkpt>
      <trkpt lat="50.61765" lon="3.49289">
        <ele>43.384913</ele>
        <time>2021-06-03T16:20:28.055Z</time>
      </trkpt>
      <trkpt lat="50.61782" lon="3.49458">
        <ele>45.16605</ele>
        <time>2021-06-03T16:20:50.249Z</time>
      </trkpt>
      <trkpt lat="50.61785" lon="3.49489">
        <ele>45.227604</ele>
        <time>2021-06-03T16:20:53.964Z</time>
      </trkpt>
      <trkpt lat="50.6179" lon="3.49543">
        <ele>45.132062</ele>
        <time>2021-06-03T16:20:58.917Z</time>
      </trkpt>
      <trkpt lat="50.61802" lon="3.49604">
        <ele>45.019178</ele>
        <time>2021-06-03T16:21:04.539Z</time>
      </trkpt>
      <trkpt lat="50.61806" lon="3.49614">
        <ele>44.997845</ele>
        <time>2021-06-03T16:21:05.583Z</time>
      </trkpt>
      <trkpt lat="50.6181" lon="3.49618">
        <ele>44.985178</ele>
        <time>2021-06-03T16:21:06.047Z</time>
      </trkpt>
      <trkpt lat="50.61848" lon="3.49634">
        <ele>44.874732</ele>
        <time>2021-06-03T16:21:11.232Z</time>
      </trkpt>
      <trkpt lat="50.61873" lon="3.49664">
        <ele>44.788929</ele>
        <time>2021-06-03T16:21:15.176Z</time>
      </trkpt>
      <trkpt lat="50.61918" lon="3.49814">
        <ele>44.266608</ele>
        <time>2021-06-03T16:21:28.352Z</time>
      </trkpt>
      <trkpt lat="50.61926" lon="3.49879">
        <ele>44.052521</ele>
        <time>2021-06-03T16:21:34.105Z</time>
      </trkpt>
      <trkpt lat="50.61932" lon="3.50011">
        <ele>44.004786</ele>
        <time>2021-06-03T16:21:46.847Z</time>
      </trkpt>
      <trkpt lat="50.61918" lon="3.50235">
        <ele>44.533363</ele>
        <time>2021-06-03T16:22:10.759Z</time>
      </trkpt>
      <trkpt lat="50.61912" lon="3.50304">
        <ele>44.754222</ele>
        <time>2021-06-03T16:22:18.512Z</time>
      </trkpt>
      <trkpt lat="50.61901" lon="3.50386">
        <ele>45.023678</ele>
        <time>2021-06-03T16:22:27.655Z</time>
      </trkpt>
      <trkpt lat="50.61885" lon="3.50547">
        <ele>45.557973</ele>
        <time>2021-06-03T16:22:44.800Z</time>
      </trkpt>
      <trkpt lat="50.61871" lon="3.5076">
        <ele>46.303985</ele>
        <time>2021-06-03T16:23:07.694Z</time>
      </trkpt>
      <trkpt lat="50.61889" lon="3.50922">
        <ele>47.626884</ele>
        <time>2021-06-03T16:23:26.595Z</time>
      </trkpt>
      <trkpt lat="50.61888" lon="3.51063">
        <ele>48.881584</ele>
        <time>2021-06-03T16:23:46.678Z</time>
      </trkpt>
      <trkpt lat="50.61887" lon="3.51171">
        <ele>50.165893</ele>
        <time>2021-06-03T16:24:03.024Z</time>
      </trkpt>
      <trkpt lat="50.61879" lon="3.5125">
        <ele>51.125709</ele>
        <time>2021-06-03T16:24:15.276Z</time>
      </trkpt>
      <trkpt lat="50.6187" lon="3.51319">
        <ele>51.966814</ele>
        <time>2021-06-03T16:24:25.247Z</time>
      </trkpt>
      <trkpt lat="50.61845" lon="3.51453">
        <ele>52.265009</ele>
        <time>2021-06-03T16:24:41.388Z</time>
      </trkpt>
      <trkpt lat="50.61847" lon="3.51664">
        <ele>51.85346</ele>
        <time>2021-06-03T16:24:58.653Z</time>
      </trkpt>
      <trkpt lat="50.61847" lon="3.51697">
        <ele>51.56325</ele>
        <time>2021-06-03T16:25:01.079Z</time>
      </trkpt>
      <trkpt lat="50.61834" lon="3.51769">
        <ele>50.908506</ele>
        <time>2021-06-03T16:25:06.482Z</time>
      </trkpt>
      <trkpt lat="50.61781" lon="3.51999">
        <ele>48.538603</ele>
        <time>2021-06-03T16:25:24.161Z</time>
      </trkpt>
      <trkpt lat="50.61804" lon="3.52103">
        <ele>47.352925</ele>
        <time>2021-06-03T16:25:32.023Z</time>
      </trkpt>
      <trkpt lat="50.61806" lon="3.5213">
        <ele>47.058452</ele>
        <time>2021-06-03T16:25:33.982Z</time>
      </trkpt>
      <trkpt lat="50.61788" lon="3.52299">
        <ele>45.806814</ele>
        <time>2021-06-03T16:25:46.420Z</time>
      </trkpt>
      <trkpt lat="50.61766" lon="3.52362">
        <ele>45.350766</ele>
        <time>2021-06-03T16:25:51.937Z</time>
      </trkpt>
      <trkpt lat="50.61728" lon="3.52436">
        <ele>44.946905</ele>
        <time>2021-06-03T16:26:00.415Z</time>
      </trkpt>
      <trkpt lat="50.61716" lon="3.52498">
        <ele>45.339237</ele>
        <time>2021-06-03T16:26:07.127Z</time>
      </trkpt>
      <trkpt lat="50.61711" lon="3.52524">
        <ele>45.50113</ele>
        <time>2021-06-03T16:26:10.073Z</time>
      </trkpt>
      <trkpt lat="50.61703" lon="3.52572">
        <ele>45.802343</ele>
        <time>2021-06-03T16:26:15.969Z</time>
      </trkpt>
      <trkpt lat="50.61697" lon="3.52613">
        <ele>46.057245</ele>
        <time>2021-06-03T16:26:21.382Z</time>
      </trkpt>
      <trkpt lat="50.61623" lon="3.53065">
        <ele>50.520802</ele>
        <time>2021-06-03T16:27:26.870Z</time>
      </trkpt>
      <trkpt lat="50.61622" lon="3.53112">
        <ele>50.881546</ele>
        <time>2021-06-03T16:27:32.768Z</time>
      </trkpt>
      <trkpt lat="50.61634" lon="3.53246">
        <ele>51.915981</ele>
        <time>2021-06-03T16:27:48.180Z</time>
      </trkpt>
      <trkpt lat="50.61632" lon="3.53287">
        <ele>52.218798</ele>
        <time>2021-06-03T16:27:52.516Z</time>
      </trkpt>
      <trkpt lat="50.61623" lon="3.53328">
        <ele>52.542204</ele>
        <time>2021-06-03T16:27:57.047Z</time>
      </trkpt>
      <trkpt lat="50.61598" lon="3.53423">
        <ele>53.304182</ele>
        <time>2021-06-03T16:28:09.312Z</time>
      </trkpt>
      <trkpt lat="50.6158" lon="3.53494">
        <ele>53.866863</ele>
        <time>2021-06-03T16:28:19.741Z</time>
      </trkpt>
      <trkpt lat="50.61572" lon="3.53537">
        <ele>54.475702</ele>
        <time>2021-06-03T16:28:25.833Z</time>
      </trkpt>
      <trkpt lat="50.6157" lon="3.53552">
        <ele>54.759351</ele>
        <time>2021-06-03T16:28:28.600Z</time>
      </trkpt>
      <trkpt lat="50.61554" lon="3.53645">
        <ele>56.588837</ele>
        <time>2021-06-03T16:28:43.860Z</time>
      </trkpt>
      <trkpt lat="50.61525" lon="3.53824">
        <ele>60.167415</ele>
        <time>2021-06-03T16:29:18.600Z</time>
      </trkpt>
      <trkpt lat="50.61488" lon="3.54066">
        <ele>65.271355</ele>
        <time>2021-06-03T16:30:03.121Z</time>
      </trkpt>
      <trkpt lat="50.61447" lon="3.54377">
        <ele>68.909698</ele>
        <time>2021-06-03T16:30:48.834Z</time>
      </trkpt>
      <trkpt lat="50.61446" lon="3.54392">
        <ele>68.946225</ele>
        <time>2021-06-03T16:30:50.461Z</time>
      </trkpt>
      <trkpt lat="50.61434" lon="3.54678">
        <ele>69.246204</ele>
        <time>2021-06-03T16:31:17.927Z</time>
      </trkpt>
      <trkpt lat="50.61434" lon="3.54691">
        <ele>69.17963</ele>
        <time>2021-06-03T16:31:19.010Z</time>
      </trkpt>
      <trkpt lat="50.61423" lon="3.54849">
        <ele>68.381471</ele>
        <time>2021-06-03T16:31:31.574Z</time>
      </trkpt>
      <trkpt lat="50.61424" lon="3.54952">
        <ele>67.608215</ele>
        <time>2021-06-03T16:31:39.157Z</time>
      </trkpt>
      <trkpt lat="50.61432" lon="3.55052">
        <ele>66.542943</ele>
        <time>2021-06-03T16:31:46.245Z</time>
      </trkpt>
      <trkpt lat="50.61445" lon="3.55268">
        <ele>64.62265</ele>
        <time>2021-06-03T16:32:01.847Z</time>
      </trkpt>
      <trkpt lat="50.61446" lon="3.55271">
        <ele>64.601057</ele>
        <time>2021-06-03T16:32:02.127Z</time>
      </trkpt>
      <trkpt lat="50.61456" lon="3.55408">
        <ele>63.800713</ele>
        <time>2021-06-03T16:32:13.212Z</time>
      </trkpt>
      <trkpt lat="50.61459" lon="3.55432">
        <ele>63.661503</ele>
        <time>2021-06-03T16:32:15.413Z</time>
      </trkpt>
      <trkpt lat="50.6147" lon="3.55482">
        <ele>63.370928</ele>
        <time>2021-06-03T16:32:20.193Z</time>
      </trkpt>
      <trkpt lat="50.61492" lon="3.55539">
        <ele>63.062627</ele>
        <time>2021-06-03T16:32:26.042Z</time>
      </trkpt>
      <trkpt lat="50.61534" lon="3.55623">
        <ele>62.567482</ele>
        <time>2021-06-03T16:32:34.685Z</time>
      </trkpt>
      <trkpt lat="50.61576" lon="3.5571">
        <ele>61.990385</ele>
        <time>2021-06-03T16:32:43.240Z</time>
      </trkpt>
      <trkpt lat="50.61589" lon="3.55748">
        <ele>61.585273</ele>
        <time>2021-06-03T16:32:46.466Z</time>
      </trkpt>
      <trkpt lat="50.61632" lon="3.55987">
        <ele>59.200326</ele>
        <time>2021-06-03T16:33:04.512Z</time>
      </trkpt>
      <trkpt lat="50.61635" lon="3.56044">
        <ele>58.531661</ele>
        <time>2021-06-03T16:33:08.656Z</time>
      </trkpt>
      <trkpt lat="50.61627" lon="3.56107">
        <ele>57.775786</ele>
        <time>2021-06-03T16:33:13.295Z</time>
      </trkpt>
      <trkpt lat="50.6161" lon="3.56171">
        <ele>56.966459</ele>
        <time>2021-06-03T16:33:18.127Z</time>
      </trkpt>
      <trkpt lat="50.61481" lon="3.56505">
        <ele>52.483438</ele>
        <time>2021-06-03T16:33:45.234Z</time>
      </trkpt>
      <trkpt lat="50.61464" lon="3.56577">
        <ele>52.448133</ele>
        <time>2021-06-03T16:33:51.376Z</time>
      </trkpt>
      <trkpt lat="50.61445" lon="3.56653">
        <ele>52.410263</ele>
        <time>2021-06-03T16:33:58.933Z</time>
      </trkpt>
      <trkpt lat="50.61392" lon="3.56868">
        <ele>54.859114</ele>
        <time>2021-06-03T16:34:30.110Z</time>
      </trkpt>
      <trkpt lat="50.61354" lon="3.57041">
        <ele>58.471335</ele>
        <time>2021-06-03T16:35:05.241Z</time>
      </trkpt>
      <trkpt lat="50.6135" lon="3.57137">
        <ele>61.129454</ele>
        <time>2021-06-03T16:35:24.995Z</time>
      </trkpt>
      <trkpt lat="50.61338" lon="3.5741">
        <ele>67.844255</ele>
        <time>2021-06-03T16:36:22.938Z</time>
      </trkpt>
      <trkpt lat="50.61341" lon="3.57484">
        <ele>69.424866</ele>
        <time>2021-06-03T16:36:35.619Z</time>
      </trkpt>
      <trkpt lat="50.61355" lon="3.57554">
        <ele>70.966505</ele>
        <time>2021-06-03T16:36:46.246Z</time>
      </trkpt>
      <trkpt lat="50.61376" lon="3.57629">
        <ele>70.807938</ele>
        <time>2021-06-03T16:36:56.755Z</time>
      </trkpt>
      <trkpt lat="50.61335" lon="3.57651">
        <ele>70.551207</ele>
        <time>2021-06-03T16:37:03.595Z</time>
      </trkpt>
      <trkpt lat="50.61233" lon="3.57715">
        <ele>69.214889</ele>
        <time>2021-06-03T16:37:15.575Z</time>
      </trkpt>
      <trkpt lat="50.61111" lon="3.57701">
        <ele>64.590636</ele>
        <time>2021-06-03T16:37:27.649Z</time>
      </trkpt>
      <trkpt lat="50.61079" lon="3.57704">
        <ele>63.380401</ele>
        <time>2021-06-03T16:37:30.714Z</time>
      </trkpt>
      <trkpt lat="50.61048" lon="3.57727">
        <ele>61.827681</ele>
        <time>2021-06-03T16:37:34.003Z</time>
      </trkpt>
      <trkpt lat="50.60969" lon="3.57755">
        <ele>58.165345</ele>
        <time>2021-06-03T16:37:41.621Z</time>
      </trkpt>
      <trkpt lat="50.60869" lon="3.57808">
        <ele>54.357121</ele>
        <time>2021-06-03T16:37:51.810Z</time>
      </trkpt>
      <trkpt lat="50.60832" lon="3.57806">
        <ele>53.62604</ele>
        <time>2021-06-03T16:37:55.679Z</time>
      </trkpt>
      <trkpt lat="50.60786" lon="3.57791">
        <ele>52.694318</ele>
        <time>2021-06-03T16:38:00.958Z</time>
      </trkpt>
      <trkpt lat="50.60754" lon="3.578">
        <ele>52.049695</ele>
        <time>2021-06-03T16:38:04.931Z</time>
      </trkpt>
      <trkpt lat="50.60732" lon="3.57803">
        <ele>51.609693</ele>
        <time>2021-06-03T16:38:08.248Z</time>
      </trkpt>
      <trkpt lat="50.60687" lon="3.57804">
        <ele>51.936024</ele>
        <time>2021-06-03T16:38:15.665Z</time>
      </trkpt>
      <trkpt lat="50.60669" lon="3.57792">
        <ele>52.123966</ele>
        <time>2021-06-03T16:38:19.323Z</time>
      </trkpt>
      <trkpt lat="50.60627" lon="3.57744">
        <ele>52.616981</ele>
        <time>2021-06-03T16:38:29.156Z</time>
      </trkpt>
      <trkpt lat="50.60603" lon="3.57719">
        <ele>52.898066</ele>
        <time>2021-06-03T16:38:35.364Z</time>
      </trkpt>
      <trkpt lat="50.60607" lon="3.57697">
        <ele>53.034208</ele>
        <time>2021-06-03T16:38:38.306Z</time>
      </trkpt>
      <trkpt lat="50.60635" lon="3.57611">
        <ele>53.903471</ele>
        <time>2021-06-03T16:38:51.179Z</time>
      </trkpt>
      <trkpt lat="50.60679" lon="3.57516">
        <ele>55.187732</ele>
        <time>2021-06-03T16:39:07.615Z</time>
      </trkpt>
      <trkpt lat="50.60705" lon="3.57461">
        <ele>55.938479</ele>
        <time>2021-06-03T16:39:16.839Z</time>
      </trkpt>
      <trkpt lat="50.60687" lon="3.57453">
        <ele>56.264018</ele>
        <time>2021-06-03T16:39:21.247Z</time>
      </trkpt>
      <trkpt lat="50.60601" lon="3.57424">
        <ele>57.978335</ele>
        <time>2021-06-03T16:39:41.507Z</time>
      </trkpt>
      <trkpt lat="50.60529" lon="3.57392">
        <ele>59.439103</ele>
        <time>2021-06-03T16:39:59.002Z</time>
      </trkpt>
      <trkpt lat="50.60522" lon="3.57367">
        <ele>59.77326</ele>
        <time>2021-06-03T16:40:03.898Z</time>
      </trkpt>
      <trkpt lat="50.6046" lon="3.57152">
        <ele>61.497362</ele>
        <time>2021-06-03T16:40:42.073Z</time>
      </trkpt>
      <trkpt lat="50.60451" lon="3.57133">
        <ele>61.666791</ele>
        <time>2021-06-03T16:40:45.416Z</time>
      </trkpt>
      <trkpt lat="50.60386" lon="3.56988">
        <ele>62.231621</ele>
        <time>2021-06-03T16:41:08.616Z</time>
      </trkpt>
      <trkpt lat="50.60383" lon="3.56979">
        <ele>62.256476</ele>
        <time>2021-06-03T16:41:09.970Z</time>
      </trkpt>
      <trkpt lat="50.60375" lon="3.5696">
        <ele>62.307664</ele>
        <time>2021-06-03T16:41:13.028Z</time>
      </trkpt>
      <trkpt lat="50.60348" lon="3.56868">
        <ele>62.546229</ele>
        <time>2021-06-03T16:41:27.210Z</time>
      </trkpt>
      <trkpt lat="50.60337" lon="3.56836">
        <ele>62.841179</ele>
        <time>2021-06-03T16:41:32.484Z</time>
      </trkpt>
      <trkpt lat="50.60331" lon="3.56819">
        <ele>63.003926</ele>
        <time>2021-06-03T16:41:35.410Z</time>
      </trkpt>
      <trkpt lat="50.60288" lon="3.56714">
        <ele>64.075539</ele>
        <time>2021-06-03T16:41:55.224Z</time>
      </trkpt>
      <trkpt lat="50.60249" lon="3.56583">
        <ele>65.581437</ele>
        <time>2021-06-03T16:42:20.938Z</time>
      </trkpt>
      <trkpt lat="50.60166" lon="3.56453">
        <ele>68.471216</ele>
        <time>2021-06-03T16:42:56.016Z</time>
      </trkpt>
      <trkpt lat="50.60041" lon="3.56226">
        <ele>74.00772</ele>
        <time>2021-06-03T16:43:57.729Z</time>
      </trkpt>
      <trkpt lat="50.59985" lon="3.56136">
        <ele>75.986738</ele>
        <time>2021-06-03T16:44:24.055Z</time>
      </trkpt>
      <trkpt lat="50.59946" lon="3.56088">
        <ele>77.087752</ele>
        <time>2021-06-03T16:44:38.458Z</time>
      </trkpt>
      <trkpt lat="50.59938" lon="3.56078">
        <ele>77.312627</ele>
        <time>2021-06-03T16:44:42.099Z</time>
      </trkpt>
      <trkpt lat="50.59955" lon="3.56027">
        <ele>78.121568</ele>
        <time>2021-06-03T16:44:52.106Z</time>
      </trkpt>
      <trkpt lat="50.59978" lon="3.55973">
        <ele>78.809315</ele>
        <time>2021-06-03T16:45:02.438Z</time>
      </trkpt>
      <trkpt lat="50.5999" lon="3.55928">
        <ele>78.840482</ele>
        <time>2021-06-03T16:45:09.946Z</time>
      </trkpt>
      <trkpt lat="50.60012" lon="3.55816">
        <ele>78.914306</ele>
        <time>2021-06-03T16:45:24.842Z</time>
      </trkpt>
      <trkpt lat="50.60054" lon="3.55687">
        <ele>78.779162</ele>
        <time>2021-06-03T16:45:41.559Z</time>
      </trkpt>
      <trkpt lat="50.601" lon="3.55546">
        <ele>78.070771</ele>
        <time>2021-06-03T16:45:59.953Z</time>
      </trkpt>
      <trkpt lat="50.60102" lon="3.55523">
        <ele>77.963401</ele>
        <time>2021-06-03T16:46:02.674Z</time>
      </trkpt>
      <trkpt lat="50.60081" lon="3.55434">
        <ele>77.434737</ele>
        <time>2021-06-03T16:46:13.349Z</time>
      </trkpt>
      <trkpt lat="50.601" lon="3.55377">
        <ele>76.975744</ele>
        <time>2021-06-03T16:46:20.374Z</time>
      </trkpt>
      <trkpt lat="50.60219" lon="3.55217">
        <ele>75.532453</ele>
        <time>2021-06-03T16:46:46.878Z</time>
      </trkpt>
      <trkpt lat="50.6023" lon="3.55191">
        <ele>75.46214</ele>
        <time>2021-06-03T16:46:50.421Z</time>
      </trkpt>
      <trkpt lat="50.60245" lon="3.55127">
        <ele>75.301804</ele>
        <time>2021-06-03T16:46:58.605Z</time>
      </trkpt>
      <trkpt lat="50.6026" lon="3.55106">
        <ele>75.230909</ele>
        <time>2021-06-03T16:47:02.389Z</time>
      </trkpt>
      <trkpt lat="50.60313" lon="3.55068">
        <ele>75.065406</ele>
        <time>2021-06-03T16:47:14.651Z</time>
      </trkpt>
      <trkpt lat="50.60322" lon="3.55061">
        <ele>75.173722</ele>
        <time>2021-06-03T16:47:16.884Z</time>
      </trkpt>
      <trkpt lat="50.60327" lon="3.55038">
        <ele>75.341636</ele>
        <time>2021-06-03T16:47:20.507Z</time>
      </trkpt>
      <trkpt lat="50.60327" lon="3.54989">
        <ele>75.682369</ele>
        <time>2021-06-03T16:47:27.867Z</time>
      </trkpt>
      <trkpt lat="50.60308" lon="3.54862">
        <ele>76.593992</ele>
        <time>2021-06-03T16:47:49.062Z</time>
      </trkpt>
      <trkpt lat="50.60345" lon="3.54659">
        <ele>77.938898</ele>
        <time>2021-06-03T16:48:24.454Z</time>
      </trkpt>
      <trkpt lat="50.60348" lon="3.54599">
        <ele>78.310501</ele>
        <time>2021-06-03T16:48:33.355Z</time>
      </trkpt>
      <trkpt lat="50.60344" lon="3.54492">
        <ele>78.48054</ele>
        <time>2021-06-03T16:48:47.865Z</time>
      </trkpt>
      <trkpt lat="50.60338" lon="3.54465">
        <ele>78.280937</ele>
        <time>2021-06-03T16:48:51.228Z</time>
      </trkpt>
      <trkpt lat="50.60331" lon="3.54448">
        <ele>78.131889</ele>
        <time>2021-06-03T16:48:53.812Z</time>
      </trkpt>
      <trkpt lat="50.60325" lon="3.54456">
        <ele>78.040439</ele>
        <time>2021-06-03T16:48:54.739Z</time>
      </trkpt>
      <trkpt lat="50.60249" lon="3.54486">
        <ele>77.159671</ele>
        <time>2021-06-03T16:49:03.985Z</time>
      </trkpt>
      <trkpt lat="50.6023" lon="3.54482">
        <ele>76.947441</ele>
        <time>2021-06-03T16:49:06.124Z</time>
      </trkpt>
      <trkpt lat="50.60058" lon="3.54363">
        <ele>72.870333</ele>
        <time>2021-06-03T16:49:26.064Z</time>
      </trkpt>
      <trkpt lat="50.60041" lon="3.54359">
        <ele>72.502208</ele>
        <time>2021-06-03T16:49:27.935Z</time>
      </trkpt>
      <trkpt lat="50.59978" lon="3.54382">
        <ele>71.363306</ele>
        <time>2021-06-03T16:49:35.021Z</time>
      </trkpt>
      <trkpt lat="50.5996" lon="3.54388">
        <ele>71.024687</ele>
        <time>2021-06-03T16:49:37.145Z</time>
      </trkpt>
      <trkpt lat="50.599" lon="3.5444">
        <ele>69.822805</ele>
        <time>2021-06-03T16:49:45.038Z</time>
      </trkpt>
      <trkpt lat="50.59873" lon="3.5446">
        <ele>69.279415</ele>
        <time>2021-06-03T16:49:48.611Z</time>
      </trkpt>
      <trkpt lat="50.59746" lon="3.54399">
        <ele>66.79803</ele>
        <time>2021-06-03T16:50:03.485Z</time>
      </trkpt>
      <trkpt lat="50.59661" lon="3.54355">
        <ele>64.698592</ele>
        <time>2021-06-03T16:50:13.037Z</time>
      </trkpt>
      <trkpt lat="50.59482" lon="3.5426">
        <ele>59.98163</ele>
        <time>2021-06-03T16:50:32.611Z</time>
      </trkpt>
      <trkpt lat="50.59369" lon="3.54211">
        <ele>57.677301</ele>
        <time>2021-06-03T16:50:45.709Z</time>
      </trkpt>
      <trkpt lat="50.59332" lon="3.54209">
        <ele>57.517954</ele>
        <time>2021-06-03T16:50:50.341Z</time>
      </trkpt>
      <trkpt lat="50.59303" lon="3.54211">
        <ele>57.442511</ele>
        <time>2021-06-03T16:50:54.300Z</time>
      </trkpt>
      <trkpt lat="50.59301" lon="3.54211">
        <ele>57.435946</ele>
        <time>2021-06-03T16:50:54.630Z</time>
      </trkpt>
      <trkpt lat="50.59298" lon="3.54211">
        <ele>57.429381</ele>
        <time>2021-06-03T16:50:54.970Z</time>
      </trkpt>
      <trkpt lat="50.59273" lon="3.54214">
        <ele>57.363954</ele>
        <time>2021-06-03T16:50:59.986Z</time>
      </trkpt>
      <trkpt lat="50.59246" lon="3.5422">
        <ele>57.290614</ele>
        <time>2021-06-03T16:51:05.681Z</time>
      </trkpt>
      <trkpt lat="50.59142" lon="3.5424">
        <ele>56.961927</ele>
        <time>2021-06-03T16:51:28.251Z</time>
      </trkpt>
      <trkpt lat="50.59007" lon="3.54263">
        <ele>56.433366</ele>
        <time>2021-06-03T16:51:53.309Z</time>
      </trkpt>
      <trkpt lat="50.5899" lon="3.54265">
        <ele>56.240178</ele>
        <time>2021-06-03T16:51:56.346Z</time>
      </trkpt>
      <trkpt lat="50.58922" lon="3.54275">
        <ele>55.48583</ele>
        <time>2021-06-03T16:52:07.780Z</time>
      </trkpt>
      <trkpt lat="50.58896" lon="3.54278">
        <ele>55.200041</ele>
        <time>2021-06-03T16:52:12.043Z</time>
      </trkpt>
      <trkpt lat="50.58821" lon="3.54285">
        <ele>54.447979</ele>
        <time>2021-06-03T16:52:24.720Z</time>
      </trkpt>
      <trkpt lat="50.58778" lon="3.54301">
        <ele>54.449089</ele>
        <time>2021-06-03T16:52:32.991Z</time>
      </trkpt>
      <trkpt lat="50.58736" lon="3.54294">
        <ele>54.450146</ele>
        <time>2021-06-03T16:52:41.550Z</time>
      </trkpt>
      <trkpt lat="50.58711" lon="3.54278">
        <ele>54.450813</ele>
        <time>2021-06-03T16:52:45.920Z</time>
      </trkpt>
      <trkpt lat="50.58675" lon="3.54263">
        <ele>54.451742</ele>
        <time>2021-06-03T16:52:52.017Z</time>
      </trkpt>
      <trkpt lat="50.58639" lon="3.54248">
        <ele>54.519169</ele>
        <time>2021-06-03T16:52:58.487Z</time>
      </trkpt>
      <trkpt lat="50.58625" lon="3.54242">
        <ele>54.587421</ele>
        <time>2021-06-03T16:53:01.189Z</time>
      </trkpt>
      <trkpt lat="50.58598" lon="3.54226">
        <ele>54.719843</ele>
        <time>2021-06-03T16:53:06.321Z</time>
      </trkpt>
      <trkpt lat="50.58553" lon="3.54197">
        <ele>54.94054</ele>
        <time>2021-06-03T16:53:14.907Z</time>
      </trkpt>
      <trkpt lat="50.58522" lon="3.54175">
        <ele>55.095819</ele>
        <time>2021-06-03T16:53:20.512Z</time>
      </trkpt>
      <trkpt lat="50.58501" lon="3.54162">
        <ele>55.199407</ele>
        <time>2021-06-03T16:53:23.980Z</time>
      </trkpt>
      <trkpt lat="50.58483" lon="3.54153">
        <ele>55.275822</ele>
        <time>2021-06-03T16:53:26.733Z</time>
      </trkpt>
      <trkpt lat="50.5847" lon="3.5415">
        <ele>55.284067</ele>
        <time>2021-06-03T16:53:28.551Z</time>
      </trkpt>
      <trkpt lat="50.58442" lon="3.54149">
        <ele>55.30086</ele>
        <time>2021-06-03T16:53:32.674Z</time>
      </trkpt>
      <trkpt lat="50.58379" lon="3.5417">
        <ele>55.34004</ele>
        <time>2021-06-03T16:53:42.421Z</time>
      </trkpt>
      <trkpt lat="50.58328" lon="3.54173">
        <ele>55.370741</ele>
        <time>2021-06-03T16:53:49.812Z</time>
      </trkpt>
      <trkpt lat="50.58325" lon="3.54142">
        <ele>55.382542</ele>
        <time>2021-06-03T16:53:52.878Z</time>
      </trkpt>
      <trkpt lat="50.58317" lon="3.5401">
        <ele>55.991867</ele>
        <time>2021-06-03T16:54:06.539Z</time>
      </trkpt>
      <trkpt lat="50.58268" lon="3.53758">
        <ele>57.73865</ele>
        <time>2021-06-03T16:54:39.083Z</time>
      </trkpt>
      <trkpt lat="50.58257" lon="3.53667">
        <ele>58.600248</ele>
        <time>2021-06-03T16:54:51.456Z</time>
      </trkpt>
      <trkpt lat="50.58247" lon="3.53578">
        <ele>59.47357</ele>
        <time>2021-06-03T16:55:03.909Z</time>
      </trkpt>
      <trkpt lat="50.58243" lon="3.53391">
        <ele>61.708834</ele>
        <time>2021-06-03T16:55:31.041Z</time>
      </trkpt>
      <trkpt lat="50.58243" lon="3.53285">
        <ele>62.914217</ele>
        <time>2021-06-03T16:55:45.937Z</time>
      </trkpt>
      <trkpt lat="50.5825" lon="3.53259">
        <ele>63.165317</ele>
        <time>2021-06-03T16:55:50.010Z</time>
      </trkpt>
      <trkpt lat="50.58271" lon="3.5312">
        <ele>64.451614</ele>
        <time>2021-06-03T16:56:08.857Z</time>
      </trkpt>
      <trkpt lat="50.58277" lon="3.5308">
        <ele>64.824375</ele>
        <time>2021-06-03T16:56:14.127Z</time>
      </trkpt>
      <trkpt lat="50.58234" lon="3.5307">
        <ele>65.368446</ele>
        <time>2021-06-03T16:56:22.367Z</time>
      </trkpt>
      <trkpt lat="50.58149" lon="3.53044">
        <ele>66.0249</ele>
        <time>2021-06-03T16:56:37.637Z</time>
      </trkpt>
      <trkpt lat="50.58138" lon="3.53033">
        <ele>66.127605</ele>
        <time>2021-06-03T16:56:40.043Z</time>
      </trkpt>
      <trkpt lat="50.57843" lon="3.52585">
        <ele>68.624818</ele>
        <time>2021-06-03T16:57:51.624Z</time>
      </trkpt>
      <trkpt lat="50.57739" lon="3.52426">
        <ele>68.284834</ele>
        <time>2021-06-03T16:58:11.824Z</time>
      </trkpt>
      <trkpt lat="50.57726" lon="3.52407">
        <ele>68.223726</ele>
        <time>2021-06-03T16:58:14.021Z</time>
      </trkpt>
      <trkpt lat="50.577" lon="3.5236">
        <ele>68.07606</ele>
        <time>2021-06-03T16:58:19.132Z</time>
      </trkpt>
      <trkpt lat="50.57208" lon="3.51782">
        <ele>63.43935</ele>
        <time>2021-06-03T16:59:38.117Z</time>
      </trkpt>
      <trkpt lat="50.57195" lon="3.5176">
        <ele>63.203828</ele>
        <time>2021-06-03T16:59:40.379Z</time>
      </trkpt>
      <trkpt lat="50.57205" lon="3.51728">
        <ele>62.916388</ele>
        <time>2021-06-03T16:59:42.945Z</time>
      </trkpt>
      <trkpt lat="50.57281" lon="3.51578">
        <ele>60.863481</ele>
        <time>2021-06-03T16:59:56.492Z</time>
      </trkpt>
      <trkpt lat="50.57284" lon="3.51565">
        <ele>60.680345</ele>
        <time>2021-06-03T16:59:57.456Z</time>
      </trkpt>
      <trkpt lat="50.5728" lon="3.51556">
        <ele>60.524239</ele>
        <time>2021-06-03T16:59:58.194Z</time>
      </trkpt>
      <trkpt lat="50.57213" lon="3.51454">
        <ele>58.575413</ele>
        <time>2021-06-03T17:00:08.312Z</time>
      </trkpt>
      <trkpt lat="50.57175" lon="3.5139">
        <ele>57.633953</ele>
        <time>2021-06-03T17:00:14.225Z</time>
      </trkpt>
      <trkpt lat="50.57136" lon="3.51318">
        <ele>56.647936</ele>
        <time>2021-06-03T17:00:21.028Z</time>
      </trkpt>
      <trkpt lat="50.57082" lon="3.51198">
        <ele>55.360164</ele>
        <time>2021-06-03T17:00:32.163Z</time>
      </trkpt>
      <trkpt lat="50.57069" lon="3.51155">
        <ele>55.228413</ele>
        <time>2021-06-03T17:00:35.927Z</time>
      </trkpt>
      <trkpt lat="50.57049" lon="3.51075">
        <ele>54.985598</ele>
        <time>2021-06-03T17:00:43.277Z</time>
      </trkpt>
      <trkpt lat="50.57028" lon="3.50919">
        <ele>54.754559</ele>
        <time>2021-06-03T17:00:58.229Z</time>
      </trkpt>
      <trkpt lat="50.57017" lon="3.50896">
        <ele>54.827412</ele>
        <time>2021-06-03T17:01:01.209Z</time>
      </trkpt>
      <trkpt lat="50.57006" lon="3.50892">
        <ele>54.872202</ele>
        <time>2021-06-03T17:01:03.185Z</time>
      </trkpt>
      <trkpt lat="50.56989" lon="3.50887">
        <ele>54.941295</ele>
        <time>2021-06-03T17:01:06.968Z</time>
      </trkpt>
      <trkpt lat="50.56955" lon="3.50881">
        <ele>55.074192</ele>
        <time>2021-06-03T17:01:14.448Z</time>
      </trkpt>
      <trkpt lat="50.5689" lon="3.50852">
        <ele>55.339694</ele>
        <time>2021-06-03T17:01:29.485Z</time>
      </trkpt>
      <trkpt lat="50.56881" lon="3.50837">
        <ele>55.407387</ele>
        <time>2021-06-03T17:01:32.392Z</time>
      </trkpt>
      <trkpt lat="50.56868" lon="3.50853">
        <ele>55.504183</ele>
        <time>2021-06-03T17:01:36.173Z</time>
      </trkpt>
      <trkpt lat="50.56852" lon="3.50944">
        <ele>55.860212</ele>
        <time>2021-06-03T17:01:49.624Z</time>
      </trkpt>
      <trkpt lat="50.56834" lon="3.51036">
        <ele>56.221445</ele>
        <time>2021-06-03T17:02:03.465Z</time>
      </trkpt>
      <trkpt lat="50.56736" lon="3.50973">
        <ele>56.779266</ele>
        <time>2021-06-03T17:02:27.724Z</time>
      </trkpt>
      <trkpt lat="50.5664" lon="3.50914">
        <ele>57.282586</ele>
        <time>2021-06-03T17:02:50.622Z</time>
      </trkpt>
      <trkpt lat="50.56625" lon="3.50916">
        <ele>57.282988</ele>
        <time>2021-06-03T17:02:54.045Z</time>
      </trkpt>
      <trkpt lat="50.56513" lon="3.51119">
        <ele>56.801767</ele>
        <time>2021-06-03T17:03:27.258Z</time>
      </trkpt>
      <trkpt lat="50.56443" lon="3.5135">
        <ele>54.265544</ele>
        <time>2021-06-03T17:03:53.907Z</time>
      </trkpt>
      <trkpt lat="50.56387" lon="3.51487">
        <ele>51.755211</ele>
        <time>2021-06-03T17:04:09.571Z</time>
      </trkpt>
      <trkpt lat="50.56374" lon="3.51494">
        <ele>51.417525</ele>
        <time>2021-06-03T17:04:11.503Z</time>
      </trkpt>
      <trkpt lat="50.5636" lon="3.5149">
        <ele>51.039056</ele>
        <time>2021-06-03T17:04:13.686Z</time>
      </trkpt>
      <trkpt lat="50.56305" lon="3.5143">
        <ele>49.303318</ele>
        <time>2021-06-03T17:04:23.730Z</time>
      </trkpt>
      <trkpt lat="50.56288" lon="3.51426">
        <ele>48.967606</ele>
        <time>2021-06-03T17:04:26.291Z</time>
      </trkpt>
      <trkpt lat="50.56226" lon="3.51538">
        <ele>47.11066</ele>
        <time>2021-06-03T17:04:40.891Z</time>
      </trkpt>
      <trkpt lat="50.56212" lon="3.51536">
        <ele>46.824833</ele>
        <time>2021-06-03T17:04:43.225Z</time>
      </trkpt>
      <trkpt lat="50.56172" lon="3.51487">
        <ele>45.82466</ele>
        <time>2021-06-03T17:04:51.607Z</time>
      </trkpt>
      <trkpt lat="50.56135" lon="3.51407">
        <ele>45.521762</ele>
        <time>2021-06-03T17:05:02.536Z</time>
      </trkpt>
      <trkpt lat="50.56033" lon="3.51295">
        <ele>45.087368</ele>
        <time>2021-06-03T17:05:26.545Z</time>
      </trkpt>
      <trkpt lat="50.56026" lon="3.51269">
        <ele>45.399915</ele>
        <time>2021-06-03T17:05:30.741Z</time>
      </trkpt>
      <trkpt lat="50.5602" lon="3.51213">
        <ele>46.009649</ele>
        <time>2021-06-03T17:05:39.417Z</time>
      </trkpt>
      <trkpt lat="50.5601" lon="3.51144">
        <ele>46.774406</ele>
        <time>2021-06-03T17:05:51.116Z</time>
      </trkpt>
      <trkpt lat="50.55745" lon="3.51206">
        <ele>53.356553</ele>
        <time>2021-06-03T17:07:01.548Z</time>
      </trkpt>
      <trkpt lat="50.55735" lon="3.51208">
        <ele>53.57522</ele>
        <time>2021-06-03T17:07:04.277Z</time>
      </trkpt>
      <trkpt lat="50.55669" lon="3.51223">
        <ele>54.903453</ele>
        <time>2021-06-03T17:07:20.684Z</time>
      </trkpt>
      <trkpt lat="50.55641" lon="3.5123">
        <ele>55.451305</ele>
        <time>2021-06-03T17:07:27.015Z</time>
      </trkpt>
      <trkpt lat="50.55611" lon="3.51239">
        <ele>56.071786</ele>
        <time>2021-06-03T17:07:33.484Z</time>
      </trkpt>
      <trkpt lat="50.55559" lon="3.51267">
        <ele>56.774284</ele>
        <time>2021-06-03T17:07:43.729Z</time>
      </trkpt>
      <trkpt lat="50.55541" lon="3.51279">
        <ele>56.835923</ele>
        <time>2021-06-03T17:07:47.421Z</time>
      </trkpt>
      <trkpt lat="50.55539" lon="3.51274">
        <ele>56.84766</ele>
        <time>2021-06-03T17:07:48.042Z</time>
      </trkpt>
      <trkpt lat="50.55534" lon="3.51268">
        <ele>56.868466</ele>
        <time>2021-06-03T17:07:49.175Z</time>
      </trkpt>
      <trkpt lat="50.5553" lon="3.51268">
        <ele>56.878211</ele>
        <time>2021-06-03T17:07:49.647Z</time>
      </trkpt>
      <trkpt lat="50.55527" lon="3.51269">
        <ele>56.889691</ele>
        <time>2021-06-03T17:07:50.297Z</time>
      </trkpt>
      <trkpt lat="50.55521" lon="3.51278">
        <ele>56.915912</ele>
        <time>2021-06-03T17:07:51.740Z</time>
      </trkpt>
      <trkpt lat="50.5552" lon="3.51284">
        <ele>56.928712</ele>
        <time>2021-06-03T17:07:52.458Z</time>
      </trkpt>
      <trkpt lat="50.55518" lon="3.51293">
        <ele>56.94666</ele>
        <time>2021-06-03T17:07:53.472Z</time>
      </trkpt>
      <trkpt lat="50.55513" lon="3.513">
        <ele>56.96713</ele>
        <time>2021-06-03T17:07:54.491Z</time>
      </trkpt>
      <trkpt lat="50.55508" lon="3.51313">
        <ele>56.996944</ele>
        <time>2021-06-03T17:07:55.936Z</time>
      </trkpt>
      <trkpt lat="50.55464" lon="3.51357">
        <ele>57.158841</ele>
        <time>2021-06-03T17:08:03.836Z</time>
      </trkpt>
      <trkpt lat="50.55448" lon="3.51368">
        <ele>57.212985</ele>
        <time>2021-06-03T17:08:06.236Z</time>
      </trkpt>
      <trkpt lat="50.55416" lon="3.51399">
        <ele>57.004054</ele>
        <time>2021-06-03T17:08:11.352Z</time>
      </trkpt>
      <trkpt lat="50.5539" lon="3.51415">
        <ele>56.667124</ele>
        <time>2021-06-03T17:08:14.979Z</time>
      </trkpt>
      <trkpt lat="50.55361" lon="3.51418">
        <ele>56.328187</ele>
        <time>2021-06-03T17:08:18.502Z</time>
      </trkpt>
      <trkpt lat="50.55334" lon="3.51409">
        <ele>55.990511</ele>
        <time>2021-06-03T17:08:21.966Z</time>
      </trkpt>
      <trkpt lat="50.55057" lon="3.51176">
        <ele>51.269952</ele>
        <time>2021-06-03T17:08:56.794Z</time>
      </trkpt>
      <trkpt lat="50.55017" lon="3.51151">
        <ele>50.926387</ele>
        <time>2021-06-03T17:09:01.850Z</time>
      </trkpt>
      <trkpt lat="50.54659" lon="3.50842">
        <ele>51.025143</ele>
        <time>2021-06-03T17:10:07.028Z</time>
      </trkpt>
      <trkpt lat="50.54663" lon="3.50797">
        <ele>51.057742</ele>
        <time>2021-06-03T17:10:12.675Z</time>
      </trkpt>
      <trkpt lat="50.54667" lon="3.50766">
        <ele>50.92385</ele>
        <time>2021-06-03T17:10:16.557Z</time>
      </trkpt>
      <trkpt lat="50.54677" lon="3.50732">
        <ele>50.765223</ele>
        <time>2021-06-03T17:10:21.072Z</time>
      </trkpt>
      <trkpt lat="50.54692" lon="3.50702">
        <ele>50.602113</ele>
        <time>2021-06-03T17:10:25.565Z</time>
      </trkpt>
      <trkpt lat="50.54751" lon="3.50628">
        <ele>50.099691</ele>
        <time>2021-06-03T17:10:38.909Z</time>
      </trkpt>
      <trkpt lat="50.54779" lon="3.50565">
        <ele>49.673276</ele>
        <time>2021-06-03T17:10:47.424Z</time>
      </trkpt>
      <trkpt lat="50.54777" lon="3.50524">
        <ele>49.304214</ele>
        <time>2021-06-03T17:10:52.065Z</time>
      </trkpt>
      <trkpt lat="50.5475" lon="3.50427">
        <ele>48.357432</ele>
        <time>2021-06-03T17:11:03.451Z</time>
      </trkpt>
      <trkpt lat="50.54761" lon="3.50367">
        <ele>47.79596</ele>
        <time>2021-06-03T17:11:09.726Z</time>
      </trkpt>
      <trkpt lat="50.54778" lon="3.50317">
        <ele>47.285223</ele>
        <time>2021-06-03T17:11:15.456Z</time>
      </trkpt>
      <trkpt lat="50.54779" lon="3.50294">
        <ele>47.052651</ele>
        <time>2021-06-03T17:11:18.094Z</time>
      </trkpt>
      <trkpt lat="50.54776" lon="3.50269">
        <ele>46.802699</ele>
        <time>2021-06-03T17:11:20.477Z</time>
      </trkpt>
      <trkpt lat="50.54726" lon="3.50194">
        <ele>45.721399</ele>
        <time>2021-06-03T17:11:32.230Z</time>
      </trkpt>
      <trkpt lat="50.54726" lon="3.50194">
        <ele>45.721399</ele>
        <time>2021-06-03T17:11:32.254Z</time>
      </trkpt>
      <trkpt lat="50.54726" lon="3.50173">
        <ele>45.518545</ele>
        <time>2021-06-03T17:11:34.753Z</time>
      </trkpt>
      <trkpt lat="50.54731" lon="3.50154">
        <ele>45.313459</ele>
        <time>2021-06-03T17:11:37.049Z</time>
      </trkpt>
      <trkpt lat="50.54754" lon="3.50109">
        <ele>44.737907</ele>
        <time>2021-06-03T17:11:43.067Z</time>
      </trkpt>
      <trkpt lat="50.54804" lon="3.50029">
        <ele>43.86561</ele>
        <time>2021-06-03T17:11:54.864Z</time>
      </trkpt>
      <trkpt lat="50.54818" lon="3.50004">
        <ele>43.620447</ele>
        <time>2021-06-03T17:11:58.431Z</time>
      </trkpt>
      <trkpt lat="50.54841" lon="3.49974">
        <ele>43.277224</ele>
        <time>2021-06-03T17:12:04.119Z</time>
      </trkpt>
      <trkpt lat="50.54852" lon="3.49963">
        <ele>43.120436</ele>
        <time>2021-06-03T17:12:06.635Z</time>
      </trkpt>
      <trkpt lat="50.54872" lon="3.4995">
        <ele>42.874406</ele>
        <time>2021-06-03T17:12:10.233Z</time>
      </trkpt>
      <trkpt lat="50.54952" lon="3.49913">
        <ele>41.628563</ele>
        <time>2021-06-03T17:12:24.107Z</time>
      </trkpt>
      <trkpt lat="50.54979" lon="3.49894">
        <ele>41.098865</ele>
        <time>2021-06-03T17:12:28.881Z</time>
      </trkpt>
      <trkpt lat="50.54991" lon="3.49891">
        <ele>40.878696</ele>
        <time>2021-06-03T17:12:30.937Z</time>
      </trkpt>
      <trkpt lat="50.54977" lon="3.4987">
        <ele>40.536919</ele>
        <time>2021-06-03T17:12:33.032Z</time>
      </trkpt>
      <trkpt lat="50.54888" lon="3.49749">
        <ele>38.662685</ele>
        <time>2021-06-03T17:12:45.944Z</time>
      </trkpt>
      <trkpt lat="50.54819" lon="3.49673">
        <ele>37.531955</ele>
        <time>2021-06-03T17:12:55.733Z</time>
      </trkpt>
      <trkpt lat="50.54807" lon="3.49659">
        <ele>37.333329</ele>
        <time>2021-06-03T17:12:57.488Z</time>
      </trkpt>
      <trkpt lat="50.54797" lon="3.49649">
        <ele>37.174884</ele>
        <time>2021-06-03T17:12:59.075Z</time>
      </trkpt>
      <trkpt lat="50.54755" lon="3.49616">
        <ele>36.955159</ele>
        <time>2021-06-03T17:13:05.363Z</time>
      </trkpt>
      <trkpt lat="50.54746" lon="3.49609">
        <ele>36.981442</ele>
        <time>2021-06-03T17:13:06.724Z</time>
      </trkpt>
      <trkpt lat="50.54724" lon="3.49595">
        <ele>37.04785</ele>
        <time>2021-06-03T17:13:10.635Z</time>
      </trkpt>
      <trkpt lat="50.54711" lon="3.49587">
        <ele>37.084435</ele>
        <time>2021-06-03T17:13:12.610Z</time>
      </trkpt>
      <trkpt lat="50.54682" lon="3.49581">
        <ele>37.165323</ele>
        <time>2021-06-03T17:13:17.674Z</time>
      </trkpt>
      <trkpt lat="50.54652" lon="3.49588">
        <ele>37.248934</ele>
        <time>2021-06-03T17:13:22.829Z</time>
      </trkpt>
      <trkpt lat="50.54648" lon="3.49594">
        <ele>37.264912</ele>
        <time>2021-06-03T17:13:23.963Z</time>
      </trkpt>
      <trkpt lat="50.54634" lon="3.49587">
        <ele>37.303868</ele>
        <time>2021-06-03T17:13:26.487Z</time>
      </trkpt>
      <trkpt lat="50.54596" lon="3.49564">
        <ele>37.47163</ele>
        <time>2021-06-03T17:13:33.630Z</time>
      </trkpt>
      <trkpt lat="50.54584" lon="3.49565">
        <ele>37.557658</ele>
        <time>2021-06-03T17:13:35.838Z</time>
      </trkpt>
      <trkpt lat="50.54581" lon="3.49558">
        <ele>37.597555</ele>
        <time>2021-06-03T17:13:36.850Z</time>
      </trkpt>
      <trkpt lat="50.54574" lon="3.49549">
        <ele>37.659916</ele>
        <time>2021-06-03T17:13:38.386Z</time>
      </trkpt>
      <trkpt lat="50.54557" lon="3.49524">
        <ele>37.82743</ele>
        <time>2021-06-03T17:13:42.381Z</time>
      </trkpt>
      <trkpt lat="50.54554" lon="3.49519">
        <ele>37.860787</ele>
        <time>2021-06-03T17:13:43.204Z</time>
      </trkpt>
      <trkpt lat="50.5455" lon="3.49514">
        <ele>37.894143</ele>
        <time>2021-06-03T17:13:44.042Z</time>
      </trkpt>
      <trkpt lat="50.54544" lon="3.495">
        <ele>37.973122</ele>
        <time>2021-06-03T17:13:45.830Z</time>
      </trkpt>
      <trkpt lat="50.5454" lon="3.49483">
        <ele>38.053989</ele>
        <time>2021-06-03T17:13:47.793Z</time>
      </trkpt>
      <trkpt lat="50.54528" lon="3.49486">
        <ele>38.137143</ele>
        <time>2021-06-03T17:13:50.531Z</time>
      </trkpt>
      <trkpt lat="50.54523" lon="3.49484">
        <ele>38.180222</ele>
        <time>2021-06-03T17:13:51.870Z</time>
      </trkpt>
      <trkpt lat="50.54421" lon="3.49376">
        <ele>39.341608</ele>
        <time>2021-06-03T17:14:20.635Z</time>
      </trkpt>
      <trkpt lat="50.54401" lon="3.49342">
        <ele>39.707782</ele>
        <time>2021-06-03T17:14:27.797Z</time>
      </trkpt>
      <trkpt lat="50.54396" lon="3.49328">
        <ele>39.832988</ele>
        <time>2021-06-03T17:14:30.387Z</time>
      </trkpt>
      <trkpt lat="50.54388" lon="3.49319">
        <ele>39.958308</ele>
        <time>2021-06-03T17:14:33.236Z</time>
      </trkpt>
      <trkpt lat="50.54379" lon="3.49311">
        <ele>40.085108</ele>
        <time>2021-06-03T17:14:35.795Z</time>
      </trkpt>
      <trkpt lat="50.54367" lon="3.49307">
        <ele>40.230165</ele>
        <time>2021-06-03T17:14:38.731Z</time>
      </trkpt>
      <trkpt lat="50.5435" lon="3.49309">
        <ele>40.450429</ele>
        <time>2021-06-03T17:14:43.695Z</time>
      </trkpt>
      <trkpt lat="50.5433" lon="3.49316">
        <ele>40.701418</ele>
        <time>2021-06-03T17:14:48.709Z</time>
      </trkpt>
      <trkpt lat="50.5426" lon="3.49372">
        <ele>41.837031</ele>
        <time>2021-06-03T17:15:09.682Z</time>
      </trkpt>
      <trkpt lat="50.5425" lon="3.49374">
        <ele>41.990291</ele>
        <time>2021-06-03T17:15:12.749Z</time>
      </trkpt>
      <trkpt lat="50.54144" lon="3.49347">
        <ele>43.603881</ele>
        <time>2021-06-03T17:15:40.601Z</time>
      </trkpt>
      <trkpt lat="50.54114" lon="3.49351">
        <ele>43.986094</ele>
        <time>2021-06-03T17:15:48.294Z</time>
      </trkpt>
      <trkpt lat="50.54079" lon="3.49375">
        <ele>44.468465</ele>
        <time>2021-06-03T17:15:58.120Z</time>
      </trkpt>
      <trkpt lat="50.54017" lon="3.49414">
        <ele>45.306437</ele>
        <time>2021-06-03T17:16:14.726Z</time>
      </trkpt>
      <trkpt lat="50.53983" lon="3.4944">
        <ele>45.786773</ele>
        <time>2021-06-03T17:16:24.244Z</time>
      </trkpt>
      <trkpt lat="50.53667" lon="3.49756">
        <ele>49.490882</ele>
        <time>2021-06-03T17:17:56.384Z</time>
      </trkpt>
      <trkpt lat="50.53509" lon="3.49911">
        <ele>48.524956</ele>
        <time>2021-06-03T17:18:30.947Z</time>
      </trkpt>
      <trkpt lat="50.53443" lon="3.49977">
        <ele>47.022271</ele>
        <time>2021-06-03T17:18:43.057Z</time>
      </trkpt>
      <trkpt lat="50.53432" lon="3.49985">
        <ele>46.788776</ele>
        <time>2021-06-03T17:18:44.790Z</time>
      </trkpt>
      <trkpt lat="50.53425" lon="3.50012">
        <ele>46.427992</ele>
        <time>2021-06-03T17:18:47.767Z</time>
      </trkpt>
      <trkpt lat="50.53342" lon="3.50368">
        <ele>41.980667</ele>
        <time>2021-06-03T17:19:26.090Z</time>
      </trkpt>
      <trkpt lat="50.53313" lon="3.50466">
        <ele>41.155368</ele>
        <time>2021-06-03T17:19:37.836Z</time>
      </trkpt>
      <trkpt lat="50.53266" lon="3.50596">
        <ele>40.012077</ele>
        <time>2021-06-03T17:19:53.985Z</time>
      </trkpt>
      <trkpt lat="50.53247" lon="3.50643">
        <ele>39.7331</ele>
        <time>2021-06-03T17:20:00.208Z</time>
      </trkpt>
      <trkpt lat="50.53216" lon="3.50718">
        <ele>39.408339</ele>
        <time>2021-06-03T17:20:10.665Z</time>
      </trkpt>
      <trkpt lat="50.53213" lon="3.50726">
        <ele>39.37634</ele>
        <time>2021-06-03T17:20:11.573Z</time>
      </trkpt>
      <trkpt lat="50.532" lon="3.50763">
        <ele>39.222718</ele>
        <time>2021-06-03T17:20:16.809Z</time>
      </trkpt>
      <trkpt lat="50.53198" lon="3.5079">
        <ele>39.127785</ele>
        <time>2021-06-03T17:20:19.823Z</time>
      </trkpt>
      <trkpt lat="50.53201" lon="3.50812">
        <ele>39.044942</ele>
        <time>2021-06-03T17:20:22.687Z</time>
      </trkpt>
      <trkpt lat="50.53239" lon="3.50859">
        <ele>38.828709</ele>
        <time>2021-06-03T17:20:31.837Z</time>
      </trkpt>
      <trkpt lat="50.53257" lon="3.5089">
        <ele>38.796255</ele>
        <time>2021-06-03T17:20:37.423Z</time>
      </trkpt>
      <trkpt lat="50.53268" lon="3.50921">
        <ele>38.768668</ele>
        <time>2021-06-03T17:20:42.034Z</time>
      </trkpt>
      <trkpt lat="50.53287" lon="3.51102">
        <ele>38.628156</ele>
        <time>2021-06-03T17:21:05.357Z</time>
      </trkpt>
      <trkpt lat="50.53287" lon="3.51102">
        <ele>38.628156</ele>
        <time>2021-06-03T17:21:05.361Z</time>
      </trkpt>
      <trkpt lat="50.53307" lon="3.51177">
        <ele>38.409913</ele>
        <time>2021-06-03T17:21:15.188Z</time>
      </trkpt>
      <trkpt lat="50.53342" lon="3.51264">
        <ele>38.129997</ele>
        <time>2021-06-03T17:21:27.351Z</time>
      </trkpt>
      <trkpt lat="50.53344" lon="3.51277">
        <ele>38.093635</ele>
        <time>2021-06-03T17:21:28.936Z</time>
      </trkpt>
      <trkpt lat="50.53338" lon="3.51289">
        <ele>38.053724</ele>
        <time>2021-06-03T17:21:30.674Z</time>
      </trkpt>
      <trkpt lat="50.5328" lon="3.51355">
        <ele>37.737579</ele>
        <time>2021-06-03T17:21:44.042Z</time>
      </trkpt>
      <trkpt lat="50.53182" lon="3.51472">
        <ele>37.176432</ele>
        <time>2021-06-03T17:22:06.992Z</time>
      </trkpt>
      <trkpt lat="50.53141" lon="3.51522">
        <ele>36.859379</ele>
        <time>2021-06-03T17:22:16.906Z</time>
      </trkpt>
      <trkpt lat="50.531" lon="3.51577">
        <ele>36.407824</ele>
        <time>2021-06-03T17:22:26.650Z</time>
      </trkpt>
      <trkpt lat="50.53077" lon="3.51607">
        <ele>36.156093</ele>
        <time>2021-06-03T17:22:31.902Z</time>
      </trkpt>
      <trkpt lat="50.53046" lon="3.51628">
        <ele>35.877998</ele>
        <time>2021-06-03T17:22:37.628Z</time>
      </trkpt>
      <trkpt lat="50.53007" lon="3.5165">
        <ele>35.52636</ele>
        <time>2021-06-03T17:22:44.734Z</time>
      </trkpt>
      <trkpt lat="50.52981" lon="3.51661">
        <ele>35.37128</ele>
        <time>2021-06-03T17:22:49.312Z</time>
      </trkpt>
      <trkpt lat="50.52936" lon="3.51681">
        <ele>35.096958</ele>
        <time>2021-06-03T17:22:57.535Z</time>
      </trkpt>
      <trkpt lat="50.52867" lon="3.51709">
        <ele>34.677594</ele>
        <time>2021-06-03T17:23:10.213Z</time>
      </trkpt>
      <trkpt lat="50.52842" lon="3.51636">
        <ele>34.610837</ele>
        <time>2021-06-03T17:23:21.262Z</time>
      </trkpt>
      <trkpt lat="50.5284" lon="3.51629">
        <ele>34.647909</ele>
        <time>2021-06-03T17:23:22.431Z</time>
      </trkpt>
      <trkpt lat="50.52822" lon="3.51588">
        <ele>34.88993</ele>
        <time>2021-06-03T17:23:30.443Z</time>
      </trkpt>
      <trkpt lat="50.52783" lon="3.5152">
        <ele>35.346203</ele>
        <time>2021-06-03T17:23:45.426Z</time>
      </trkpt>
      <trkpt lat="50.5277" lon="3.51505">
        <ele>35.466862</ele>
        <time>2021-06-03T17:23:49.191Z</time>
      </trkpt>
      <trkpt lat="50.52729" lon="3.51449">
        <ele>35.866848</ele>
        <time>2021-06-03T17:24:01.886Z</time>
      </trkpt>
      <trkpt lat="50.52719" lon="3.51437">
        <ele>35.881569</ele>
        <time>2021-06-03T17:24:04.284Z</time>
      </trkpt>
      <trkpt lat="50.52714" lon="3.51431">
        <ele>35.889418</ele>
        <time>2021-06-03T17:24:05.601Z</time>
      </trkpt>
      <trkpt lat="50.52714" lon="3.51431">
        <ele>35.889418</ele>
        <time>2021-06-03T17:24:05.656Z</time>
      </trkpt>
      <trkpt lat="50.52706" lon="3.5142">
        <ele>35.901269</ele>
        <time>2021-06-03T17:24:08.108Z</time>
      </trkpt>
      <trkpt lat="50.52722" lon="3.51393">
        <ele>35.928073</ele>
        <time>2021-06-03T17:24:12.489Z</time>
      </trkpt>
      <trkpt lat="50.5276" lon="3.51331">
        <ele>35.992838</ele>
        <time>2021-06-03T17:24:24.533Z</time>
      </trkpt>
      <trkpt lat="50.52789" lon="3.51285">
        <ele>36.041265</ele>
        <time>2021-06-03T17:24:32.542Z</time>
      </trkpt>
      <trkpt lat="50.52799" lon="3.51269">
        <ele>36.058199</ele>
        <time>2021-06-03T17:24:35.151Z</time>
      </trkpt>
      <trkpt lat="50.52867" lon="3.51134">
        <ele>36.789447</ele>
        <time>2021-06-03T17:24:56.063Z</time>
      </trkpt>
      <trkpt lat="50.52966" lon="3.50894">
        <ele>39.586525</ele>
        <time>2021-06-03T17:25:47.308Z</time>
      </trkpt>
      <trkpt lat="50.52998" lon="3.50805">
        <ele>41.015765</ele>
        <time>2021-06-03T17:26:07.190Z</time>
      </trkpt>
      <trkpt lat="50.53015" lon="3.50751">
        <ele>41.798829</ele>
        <time>2021-06-03T17:26:18.682Z</time>
      </trkpt>
      <trkpt lat="50.53061" lon="3.50585">
        <ele>44.040952</ele>
        <time>2021-06-03T17:26:52.011Z</time>
      </trkpt>
      <trkpt lat="50.53077" lon="3.50493">
        <ele>44.898557</ele>
        <time>2021-06-03T17:27:07.253Z</time>
      </trkpt>
      <trkpt lat="50.53063" lon="3.50413">
        <ele>44.880715</ele>
        <time>2021-06-03T17:27:20.116Z</time>
      </trkpt>
      <trkpt lat="50.53014" lon="3.50277">
        <ele>44.847455</ele>
        <time>2021-06-03T17:27:38.594Z</time>
      </trkpt>
      <trkpt lat="50.53009" lon="3.50267">
        <ele>44.84484</ele>
        <time>2021-06-03T17:27:39.984Z</time>
      </trkpt>
      <trkpt lat="50.53005" lon="3.50257">
        <ele>44.752566</ele>
        <time>2021-06-03T17:27:41.287Z</time>
      </trkpt>
      <trkpt lat="50.52993" lon="3.50234">
        <ele>44.370457</ele>
        <time>2021-06-03T17:27:44.173Z</time>
      </trkpt>
      <trkpt lat="50.52963" lon="3.50179">
        <ele>43.406297</ele>
        <time>2021-06-03T17:27:49.354Z</time>
      </trkpt>
      <trkpt lat="50.52955" lon="3.50169">
        <ele>43.197484</ele>
        <time>2021-06-03T17:27:50.474Z</time>
      </trkpt>
      <trkpt lat="50.52947" lon="3.5016">
        <ele>42.992883</ele>
        <time>2021-06-03T17:27:51.487Z</time>
      </trkpt>
      <trkpt lat="50.52899" lon="3.50114">
        <ele>41.82498</ele>
        <time>2021-06-03T17:27:57.499Z</time>
      </trkpt>
      <trkpt lat="50.52877" lon="3.50086">
        <ele>41.237538</ele>
        <time>2021-06-03T17:28:00.402Z</time>
      </trkpt>
      <trkpt lat="50.52862" lon="3.50053">
        <ele>40.723003</ele>
        <time>2021-06-03T17:28:03.095Z</time>
      </trkpt>
      <trkpt lat="50.52823" lon="3.49916">
        <ele>38.886064</ele>
        <time>2021-06-03T17:28:13.398Z</time>
      </trkpt>
      <trkpt lat="50.52816" lon="3.49901">
        <ele>38.658748</ele>
        <time>2021-06-03T17:28:14.781Z</time>
      </trkpt>
      <trkpt lat="50.52782" lon="3.49813">
        <ele>37.579238</ele>
        <time>2021-06-03T17:28:22.731Z</time>
      </trkpt>
      <trkpt lat="50.52741" lon="3.4971">
        <ele>37.221083</ele>
        <time>2021-06-03T17:28:32.568Z</time>
      </trkpt>
      <trkpt lat="50.5273" lon="3.49651">
        <ele>37.039844</ele>
        <time>2021-06-03T17:28:37.955Z</time>
      </trkpt>
      <trkpt lat="50.52721" lon="3.49559">
        <ele>36.849756</ele>
        <time>2021-06-03T17:28:46.657Z</time>
      </trkpt>
      <trkpt lat="50.52714" lon="3.49533">
        <ele>36.970201</ele>
        <time>2021-06-03T17:28:49.432Z</time>
      </trkpt>
      <trkpt lat="50.52712" lon="3.49529">
        <ele>36.990403</ele>
        <time>2021-06-03T17:28:49.994Z</time>
      </trkpt>
      <trkpt lat="50.52677" lon="3.49452">
        <ele>37.379218</ele>
        <time>2021-06-03T17:28:59.485Z</time>
      </trkpt>
      <trkpt lat="50.52627" lon="3.49401">
        <ele>37.764541</ele>
        <time>2021-06-03T17:29:10.062Z</time>
      </trkpt>
      <trkpt lat="50.52606" lon="3.49393">
        <ele>37.905046</ele>
        <time>2021-06-03T17:29:14.386Z</time>
      </trkpt>
      <trkpt lat="50.5252" lon="3.49298">
        <ele>39.697481</ele>
        <time>2021-06-03T17:29:37.811Z</time>
      </trkpt>
      <trkpt lat="50.5252" lon="3.49298">
        <ele>39.697481</ele>
        <time>2021-06-03T17:29:37.907Z</time>
      </trkpt>
      <trkpt lat="50.52468" lon="3.49266">
        <ele>40.729427</ele>
        <time>2021-06-03T17:29:51.157Z</time>
      </trkpt>
      <trkpt lat="50.52437" lon="3.49238">
        <ele>41.15316</ele>
        <time>2021-06-03T17:29:59.243Z</time>
      </trkpt>
      <trkpt lat="50.524" lon="3.49201">
        <ele>40.695956</ele>
        <time>2021-06-03T17:30:08.562Z</time>
      </trkpt>
      <trkpt lat="50.5212" lon="3.50308">
        <ele>31.666771</ele>
        <time>2021-06-03T17:31:37.120Z</time>
      </trkpt>
      <trkpt lat="50.5208" lon="3.5027">
        <ele>30.943324</ele>
        <time>2021-06-03T17:31:44.694Z</time>
      </trkpt>
      <trkpt lat="50.51998" lon="3.50182">
        <ele>29.607372</ele>
        <time>2021-06-03T17:32:00.929Z</time>
      </trkpt>
      <trkpt lat="50.51944" lon="3.50099">
        <ele>28.694847</ele>
        <time>2021-06-03T17:32:13.841Z</time>
      </trkpt>
      <trkpt lat="50.51919" lon="3.50084">
        <ele>28.378546</ele>
        <time>2021-06-03T17:32:18.446Z</time>
      </trkpt>
      <trkpt lat="50.51831" lon="3.50116">
        <ele>27.624717</ele>
        <time>2021-06-03T17:32:34.503Z</time>
      </trkpt>
      <trkpt lat="50.51737" lon="3.50105">
        <ele>26.952997</ele>
        <time>2021-06-03T17:32:51.605Z</time>
      </trkpt>
      <trkpt lat="50.51703" lon="3.50087">
        <ele>26.755943</ele>
        <time>2021-06-03T17:32:58.255Z</time>
      </trkpt>
      <trkpt lat="50.51699" lon="3.50081">
        <ele>26.733999</ele>
        <time>2021-06-03T17:32:59.219Z</time>
      </trkpt>
      <trkpt lat="50.51699" lon="3.50068">
        <ele>26.703145</ele>
        <time>2021-06-03T17:33:00.583Z</time>
      </trkpt>
      <trkpt lat="50.51701" lon="3.5002">
        <ele>26.581837</ele>
        <time>2021-06-03T17:33:06.445Z</time>
      </trkpt>
      <trkpt lat="50.51683" lon="3.49975">
        <ele>26.447059</ele>
        <time>2021-06-03T17:33:13.013Z</time>
      </trkpt>
      <trkpt lat="50.51668" lon="3.49964">
        <ele>26.381807</ele>
        <time>2021-06-03T17:33:16.177Z</time>
      </trkpt>
      <trkpt lat="50.51651" lon="3.49965">
        <ele>26.311424</ele>
        <time>2021-06-03T17:33:19.532Z</time>
      </trkpt>
      <trkpt lat="50.51614" lon="3.4998">
        <ele>26.161866</ele>
        <time>2021-06-03T17:33:26.568Z</time>
      </trkpt>
      <trkpt lat="50.51534" lon="3.50031">
        <ele>25.764816</ele>
        <time>2021-06-03T17:33:43.038Z</time>
      </trkpt>
      <trkpt lat="50.51493" lon="3.50033">
        <ele>25.569518</ele>
        <time>2021-06-03T17:33:50.756Z</time>
      </trkpt>
      <trkpt lat="50.51403" lon="3.50027">
        <ele>25.111357</ele>
        <time>2021-06-03T17:34:07.223Z</time>
      </trkpt>
      <trkpt lat="50.51388" lon="3.50031">
        <ele>25.020056</ele>
        <time>2021-06-03T17:34:09.930Z</time>
      </trkpt>
      <trkpt lat="50.51365" lon="3.50016">
        <ele>24.873587</ele>
        <time>2021-06-03T17:34:13.030Z</time>
      </trkpt>
      <trkpt lat="50.51361" lon="3.50011">
        <ele>24.841331</ele>
        <time>2021-06-03T17:34:13.702Z</time>
      </trkpt>
      <trkpt lat="50.51349" lon="3.49997">
        <ele>24.753035</ele>
        <time>2021-06-03T17:34:15.576Z</time>
      </trkpt>
      <trkpt lat="50.51329" lon="3.49959">
        <ele>24.561321</ele>
        <time>2021-06-03T17:34:19.807Z</time>
      </trkpt>
      <trkpt lat="50.51322" lon="3.49943">
        <ele>24.4903</ele>
        <time>2021-06-03T17:34:21.359Z</time>
      </trkpt>
      <trkpt lat="50.51323" lon="3.49797">
        <ele>23.91764</ele>
        <time>2021-06-03T17:34:33.803Z</time>
      </trkpt>
      <trkpt lat="50.51322" lon="3.49739">
        <ele>23.682644</ele>
        <time>2021-06-03T17:34:38.696Z</time>
      </trkpt>
      <trkpt lat="50.51308" lon="3.49699">
        <ele>23.499551</ele>
        <time>2021-06-03T17:34:42.389Z</time>
      </trkpt>
      <trkpt lat="50.5129" lon="3.49667">
        <ele>23.328597</ele>
        <time>2021-06-03T17:34:45.870Z</time>
      </trkpt>
      <trkpt lat="50.51284" lon="3.49655">
        <ele>23.261892</ele>
        <time>2021-06-03T17:34:47.201Z</time>
      </trkpt>
      <trkpt lat="50.51281" lon="3.49649">
        <ele>23.233373</ele>
        <time>2021-06-03T17:34:47.753Z</time>
      </trkpt>
      <trkpt lat="50.51271" lon="3.4958">
        <ele>22.915341</ele>
        <time>2021-06-03T17:34:53.472Z</time>
      </trkpt>
      <trkpt lat="50.51269" lon="3.49574">
        <ele>22.876477</ele>
        <time>2021-06-03T17:34:54.039Z</time>
      </trkpt>
      <trkpt lat="50.51219" lon="3.4955">
        <ele>22.440114</ele>
        <time>2021-06-03T17:35:00.507Z</time>
      </trkpt>
      <trkpt lat="50.51187" lon="3.49526">
        <ele>22.149494</ele>
        <time>2021-06-03T17:35:04.787Z</time>
      </trkpt>
      <trkpt lat="50.51121" lon="3.49492">
        <ele>21.56941</ele>
        <time>2021-06-03T17:35:13.340Z</time>
      </trkpt>
      <trkpt lat="50.51048" lon="3.49357">
        <ele>21.539232</ele>
        <time>2021-06-03T17:35:29.105Z</time>
      </trkpt>
      <trkpt lat="50.51039" lon="3.49338">
        <ele>21.537762</ele>
        <time>2021-06-03T17:35:31.460Z</time>
      </trkpt>
      <trkpt lat="50.5104" lon="3.49284">
        <ele>21.534384</ele>
        <time>2021-06-03T17:35:37.139Z</time>
      </trkpt>
      <trkpt lat="50.51084" lon="3.49038">
        <ele>22.679129</ele>
        <time>2021-06-03T17:36:07.137Z</time>
      </trkpt>
      <trkpt lat="50.5114" lon="3.48908">
        <ele>23.099706</ele>
        <time>2021-06-03T17:36:25.175Z</time>
      </trkpt>
      <trkpt lat="50.51144" lon="3.48878">
        <ele>23.136428</ele>
        <time>2021-06-03T17:36:27.949Z</time>
      </trkpt>
      <trkpt lat="50.5114" lon="3.48867">
        <ele>23.151037</ele>
        <time>2021-06-03T17:36:29.492Z</time>
      </trkpt>
      <trkpt lat="50.51135" lon="3.4885">
        <ele>23.174528</ele>
        <time>2021-06-03T17:36:31.248Z</time>
      </trkpt>
      <trkpt lat="50.51113" lon="3.48814">
        <ele>23.235418</ele>
        <time>2021-06-03T17:36:36.110Z</time>
      </trkpt>
      <trkpt lat="50.51096" lon="3.4873">
        <ele>23.251926</ele>
        <time>2021-06-03T17:36:43.529Z</time>
      </trkpt>
      <trkpt lat="50.5108" lon="3.48708">
        <ele>23.086538</ele>
        <time>2021-06-03T17:36:46.355Z</time>
      </trkpt>
      <trkpt lat="50.51065" lon="3.48691">
        <ele>22.950249</ele>
        <time>2021-06-03T17:36:48.620Z</time>
      </trkpt>
      <trkpt lat="50.51084" lon="3.48625">
        <ele>22.60245</ele>
        <time>2021-06-03T17:36:54.274Z</time>
      </trkpt>
      <trkpt lat="50.51087" lon="3.48604">
        <ele>22.497842</ele>
        <time>2021-06-03T17:36:55.904Z</time>
      </trkpt>
      <trkpt lat="50.51082" lon="3.48534">
        <ele>22.157409</ele>
        <time>2021-06-03T17:37:01.527Z</time>
      </trkpt>
      <trkpt lat="50.5108" lon="3.48506">
        <ele>22.022277</ele>
        <time>2021-06-03T17:37:03.801Z</time>
      </trkpt>
      <trkpt lat="50.51082" lon="3.4846">
        <ele>21.89769</ele>
        <time>2021-06-03T17:37:07.615Z</time>
      </trkpt>
      <trkpt lat="50.51082" lon="3.4846">
        <ele>21.89769</ele>
        <time>2021-06-03T17:37:07.621Z</time>
      </trkpt>
      <trkpt lat="50.51087" lon="3.48377">
        <ele>21.744979</ele>
        <time>2021-06-03T17:37:14.630Z</time>
      </trkpt>
      <trkpt lat="50.51092" lon="3.48355">
        <ele>21.701457</ele>
        <time>2021-06-03T17:37:16.768Z</time>
      </trkpt>
      <trkpt lat="50.511" lon="3.48334">
        <ele>21.658135</ele>
        <time>2021-06-03T17:37:18.823Z</time>
      </trkpt>
      <trkpt lat="50.5112" lon="3.48278">
        <ele>21.539994</ele>
        <time>2021-06-03T17:37:24.846Z</time>
      </trkpt>
      <trkpt lat="50.5113" lon="3.48251">
        <ele>21.481671</ele>
        <time>2021-06-03T17:37:28.118Z</time>
      </trkpt>
      <trkpt lat="50.51135" lon="3.48237">
        <ele>21.453511</ele>
        <time>2021-06-03T17:37:29.564Z</time>
      </trkpt>
      <trkpt lat="50.51143" lon="3.48169">
        <ele>21.443496</ele>
        <time>2021-06-03T17:37:36.185Z</time>
      </trkpt>
      <trkpt lat="50.51138" lon="3.48111">
        <ele>21.446489</ele>
        <time>2021-06-03T17:37:41.774Z</time>
      </trkpt>
      <trkpt lat="50.51132" lon="3.48019">
        <ele>21.451219</ele>
        <time>2021-06-03T17:37:50.463Z</time>
      </trkpt>
      <trkpt lat="50.51129" lon="3.48001">
        <ele>21.452168</ele>
        <time>2021-06-03T17:37:52.019Z</time>
      </trkpt>
      <trkpt lat="50.51125" lon="3.47964">
        <ele>21.454095</ele>
        <time>2021-06-03T17:37:55.738Z</time>
      </trkpt>
      <trkpt lat="50.51122" lon="3.47856">
        <ele>21.578163</ele>
        <time>2021-06-03T17:38:06.140Z</time>
      </trkpt>
      <trkpt lat="50.51109" lon="3.47824">
        <ele>21.62799</ele>
        <time>2021-06-03T17:38:09.594Z</time>
      </trkpt>
      <trkpt lat="50.5109" lon="3.47798">
        <ele>21.678781</ele>
        <time>2021-06-03T17:38:13.631Z</time>
      </trkpt>
      <trkpt lat="50.51082" lon="3.47786">
        <ele>21.701989</ele>
        <time>2021-06-03T17:38:15.215Z</time>
      </trkpt>
      <trkpt lat="50.5108" lon="3.47774">
        <ele>21.71753</ele>
        <time>2021-06-03T17:38:16.693Z</time>
      </trkpt>
      <trkpt lat="50.51104" lon="3.47687">
        <ele>21.877666</ele>
        <time>2021-06-03T17:38:26.561Z</time>
      </trkpt>
      <trkpt lat="50.51109" lon="3.47654">
        <ele>22.009713</ele>
        <time>2021-06-03T17:38:30.429Z</time>
      </trkpt>
      <trkpt lat="50.5111" lon="3.47622">
        <ele>22.132624</ele>
        <time>2021-06-03T17:38:33.749Z</time>
      </trkpt>
      <trkpt lat="50.51104" lon="3.47596">
        <ele>22.241943</ele>
        <time>2021-06-03T17:38:37.042Z</time>
      </trkpt>
      <trkpt lat="50.51082" lon="3.4755">
        <ele>22.466264</ele>
        <time>2021-06-03T17:38:43.547Z</time>
      </trkpt>
      <trkpt lat="50.51016" lon="3.47475">
        <ele>22.95274</ele>
        <time>2021-06-03T17:38:57.596Z</time>
      </trkpt>
      <trkpt lat="50.51006" lon="3.47445">
        <ele>23.049319</ele>
        <time>2021-06-03T17:39:01.138Z</time>
      </trkpt>
      <trkpt lat="50.51065" lon="3.47278">
        <ele>23.590168</ele>
        <time>2021-06-03T17:39:21.201Z</time>
      </trkpt>
      <trkpt lat="50.51066" lon="3.47262">
        <ele>23.636521</ele>
        <time>2021-06-03T17:39:22.897Z</time>
      </trkpt>
      <trkpt lat="50.51059" lon="3.47247">
        <ele>23.690469</ele>
        <time>2021-06-03T17:39:24.898Z</time>
      </trkpt>
      <trkpt lat="50.51052" lon="3.47236">
        <ele>23.732924</ele>
        <time>2021-06-03T17:39:26.456Z</time>
      </trkpt>
      <trkpt lat="50.50985" lon="3.47169">
        <ele>24.092467</ele>
        <time>2021-06-03T17:39:39.723Z</time>
      </trkpt>
      <trkpt lat="50.50936" lon="3.47116">
        <ele>24.362817</ele>
        <time>2021-06-03T17:39:49.625Z</time>
      </trkpt>
      <trkpt lat="50.50899" lon="3.47062">
        <ele>24.589278</ele>
        <time>2021-06-03T17:39:58.265Z</time>
      </trkpt>
      <trkpt lat="50.50871" lon="3.47017">
        <ele>24.758087</ele>
        <time>2021-06-03T17:40:04.959Z</time>
      </trkpt>
      <trkpt lat="50.5085" lon="3.46978">
        <ele>24.89612</ele>
        <time>2021-06-03T17:40:10.391Z</time>
      </trkpt>
      <trkpt lat="50.5084" lon="3.46941">
        <ele>25.005367</ele>
        <time>2021-06-03T17:40:14.714Z</time>
      </trkpt>
      <trkpt lat="50.50839" lon="3.46894">
        <ele>25.132556</ele>
        <time>2021-06-03T17:40:19.761Z</time>
      </trkpt>
      <trkpt lat="50.50838" lon="3.46879">
        <ele>25.172422</ele>
        <time>2021-06-03T17:40:21.402Z</time>
      </trkpt>
      <trkpt lat="50.50837" lon="3.46857">
        <ele>25.231338</ele>
        <time>2021-06-03T17:40:23.698Z</time>
      </trkpt>
      <trkpt lat="50.50831" lon="3.4684">
        <ele>25.284823</ele>
        <time>2021-06-03T17:40:25.647Z</time>
      </trkpt>
      <trkpt lat="50.50821" lon="3.46826">
        <ele>25.290153</ele>
        <time>2021-06-03T17:40:27.723Z</time>
      </trkpt>
      <trkpt lat="50.50778" lon="3.46766">
        <ele>25.142179</ele>
        <time>2021-06-03T17:40:36.232Z</time>
      </trkpt>
      <trkpt lat="50.50735" lon="3.46707">
        <ele>24.994721</ele>
        <time>2021-06-03T17:40:44.266Z</time>
      </trkpt>
      <trkpt lat="50.50708" lon="3.46672">
        <ele>24.904666</ele>
        <time>2021-06-03T17:40:48.910Z</time>
      </trkpt>
      <trkpt lat="50.50681" lon="3.46651">
        <ele>24.777875</ele>
        <time>2021-06-03T17:40:52.715Z</time>
      </trkpt>
      <trkpt lat="50.50523" lon="3.46572">
        <ele>23.227472</ele>
        <time>2021-06-03T17:41:12.921Z</time>
      </trkpt>
      <trkpt lat="50.50375" lon="3.46463">
        <ele>23.167459</ele>
        <time>2021-06-03T17:41:34.246Z</time>
      </trkpt>
    </trkseg>
  </trk>
</gpx>